Wetterdaten: aktuell Montag, 23.05.2022 04:28
Datum Zeit Temp. Aussen Temp. o. S. Temp +5cm Feuchte Auss Luftdruck Regen Sonnenschein Regendauer Solar Windben Empfang
23.05.2022 04:28 17,6 C 16,7 C 13,3 C 72 % 1007,2 hPa 0,0 l/m 0 min 0 min 0 W/m 12,9 km/h (3 Bft) 100,00 %
23.05.2022 04:26 17,6 C 16,7 C 13,3 C 72 % 1007,2 hPa 0,0 l/m 0 min 0 min 0 W/m 6,4 km/h (2 Bft) 97,87 %
23.05.2022 04:24 17,6 C 16,7 C 13,3 C 72 % 1007,2 hPa 0,0 l/m 0 min 0 min 0 W/m 6,4 km/h (2 Bft) 100,00 %
23.05.2022 04:22 17,6 C 16,7 C 13,3 C 72 % 1007,3 hPa 0,0 l/m 0 min 0 min 0 W/m 6,4 km/h (2 Bft) 100,00 %
23.05.2022 04:20 17,6 C 16,7 C 13,3 C 72 % 1007,2 hPa 0,0 l/m 0 min 0 min 0 W/m 6,4 km/h (2 Bft) 97,87 %
23.05.2022 04:18 17,6 C 16,7 C 13,3 C 72 % 1007,2 hPa 0,0 l/m 0 min 0 min 0 W/m 6,4 km/h (2 Bft) 100,00 %
23.05.2022 04:16 17,6 C 16,7 C 13,3 C 73 % 1007,2 hPa 0,0 l/m 0 min 0 min 0 W/m 6,4 km/h (2 Bft) 97,87 %
23.05.2022 04:14 17,5 C 16,7 C 13,3 C 73 % 1007,3 hPa 0,0 l/m 0 min 0 min 0 W/m 6,4 km/h (2 Bft) 100,00 %
23.05.2022 04:12 17,6 C 16,7 C 13,3 C 73 % 1007,3 hPa 0,0 l/m 0 min 0 min 0 W/m 6,4 km/h (2 Bft) 100,00 %
23.05.2022 04:10 17,5 C 16,7 C 13,3 C 73 % 1007,2 hPa 0,0 l/m 0 min 0 min 0 W/m 6,4 km/h (2 Bft) 100,00 %
23.05.2022 04:08 17,5 C 16,7 C 13,3 C 73 % 1007,2 hPa 0,0 l/m 0 min 0 min 0 W/m 6,4 km/h (2 Bft) 100,00 %
23.05.2022 04:06 17,5 C 16,7 C 13,3 C 73 % 1007,2 hPa 0,0 l/m 0 min 0 min 0 W/m 3,2 km/h (1 Bft) 100,00 %
23.05.2022 04:05 17,5 C 16,7 C 13,3 C 73 % 1007,3 hPa 0,0 l/m 0 min 0 min 0 W/m 3,2 km/h (1 Bft) 98,46 %
23.05.2022 04:00 17,4 C 16,7 C 13,3 C 74 % 1007,4 hPa 0,0 l/m 0 min 0 min 0 W/m 3,2 km/h (1 Bft) 100,00 %
23.05.2022 03:58 17,4 C 16,7 C 13,3 C 74 % 1007,4 hPa 0,0 l/m 0 min 0 min 0 W/m 6,4 km/h (2 Bft) 100,00 %
23.05.2022 03:56 17,4 C 16,7 C 13,3 C 74 % 1007,5 hPa 0,0 l/m 0 min 0 min 0 W/m 6,4 km/h (2 Bft) 100,00 %
23.05.2022 03:54 17,4 C 16,7 C 13,3 C 74 % 1007,5 hPa 0,0 l/m 0 min 0 min 0 W/m 3,2 km/h (1 Bft) 100,00 %
23.05.2022 03:52 17,3 C 16,7 C 13,3 C 74 % 1007,4 hPa 0,0 l/m 0 min 0 min 0 W/m 6,4 km/h (2 Bft) 100,00 %
23.05.2022 03:50 17,3 C 16,7 C 13,3 C 74 % 1007,4 hPa 0,0 l/m 0 min 0 min 0 W/m 12,9 km/h (3 Bft) 100,00 %
23.05.2022 03:48 17,2 C 16,7 C 13,3 C 75 % 1007,3 hPa 0,0 l/m 0 min 0 min 0 W/m 12,9 km/h (3 Bft) 100,00 %
23.05.2022 03:46 17,2 C 16,7 C 13,3 C 75 % 1007,3 hPa 0,0 l/m 0 min 0 min 0 W/m 12,9 km/h (3 Bft) 100,00 %
23.05.2022 03:44 17,1 C 16,7 C 13,3 C 75 % 1007,2 hPa 0,0 l/m 0 min 0 min 0 W/m 3,2 km/h (1 Bft) 100,00 %
23.05.2022 03:42 17,1 C 16,7 C 13,3 C 76 % 1007,2 hPa 0,0 l/m 0 min 0 min 0 W/m 12,9 km/h (3 Bft) 97,87 %
23.05.2022 03:40 17,1 C 16,7 C 13,3 C 76 % 1007,3 hPa 0,0 l/m 0 min 0 min 0 W/m 12,9 km/h (3 Bft) 97,87 %
23.05.2022 03:38 17,1 C 16,7 C 13,3 C 77 % 1007,3 hPa 0,0 l/m 0 min 0 min 0 W/m 12,9 km/h (3 Bft) 95,74 %
23.05.2022 03:36 17,0 C 16,7 C 13,3 C 77 % 1007,3 hPa 0,0 l/m 0 min 0 min 0 W/m 6,4 km/h (2 Bft) 97,87 %
23.05.2022 03:34 17,0 C 16,7 C 13,3 C 78 % 1007,4 hPa 0,0 l/m 0 min 0 min 0 W/m 6,4 km/h (2 Bft) 95,74 %
23.05.2022 03:32 16,9 C 16,7 C 13,3 C 78 % 1007,5 hPa 0,0 l/m 0 min 0 min 0 W/m 3,2 km/h (1 Bft) 97,83 %
23.05.2022 03:30 16,9 C 16,7 C 13,3 C 78 % 1007,5 hPa 0,0 l/m 0 min 0 min 0 W/m 6,4 km/h (2 Bft) 97,87 %
23.05.2022 03:28 16,9 C 16,7 C 13,3 C 78 % 1007,6 hPa 0,0 l/m 0 min 0 min 0 W/m 6,4 km/h (2 Bft) 97,87 %
23.05.2022 03:26 16,8 C 16,7 C 13,3 C 78 % 1007,6 hPa 0,0 l/m 0 min 0 min 0 W/m 3,2 km/h (1 Bft) 93,62 %
23.05.2022 03:24 16,8 C 16,7 C 13,3 C 79 % 1007,7 hPa 0,0 l/m 0 min 0 min 0 W/m 6,4 km/h (2 Bft) 95,74 %
23.05.2022 03:22 16,8 C 16,7 C 13,3 C 79 % 1007,7 hPa 0,0 l/m 0 min 0 min 0 W/m 6,4 km/h (2 Bft) 93,48 %
23.05.2022 03:20 16,8 C 16,7 C 13,3 C 79 % 1007,8 hPa 0,0 l/m 0 min 0 min 0 W/m 3,2 km/h (1 Bft) 95,74 %
23.05.2022 03:18 16,8 C 16,7 C 13,3 C 79 % 1007,8 hPa 0,0 l/m 0 min 0 min 0 W/m 3,2 km/h (1 Bft) 95,74 %
23.05.2022 03:16 16,8 C 16,7 C 13,3 C 80 % 1007,8 hPa 0,0 l/m 0 min 0 min 0 W/m 3,2 km/h (1 Bft) 93,62 %
23.05.2022 03:14 16,7 C 16,7 C 13,3 C 80 % 1007,8 hPa 0,0 l/m 0 min 0 min 0 W/m 6,4 km/h (2 Bft) 95,74 %
23.05.2022 03:12 16,7 C 16,1 C 12,8 C 80 % 1007,8 hPa 0,0 l/m 0 min 0 min 0 W/m 6,4 km/h (2 Bft) 95,74 %
23.05.2022 03:10 16,7 C 16,1 C 12,8 C 80 % 1007,8 hPa 0,0 l/m 0 min 0 min 0 W/m 3,2 km/h (1 Bft) 95,65 %
23.05.2022 03:08 16,7 C 16,1 C 12,8 C 80 % 1007,9 hPa 0,0 l/m 0 min 0 min 0 W/m 3,2 km/h (1 Bft) 97,87 %
23.05.2022 03:06 16,7 C 16,1 C 12,8 C 81 % 1007,9 hPa 0,0 l/m 0 min 0 min 0 W/m 3,2 km/h (1 Bft) 97,87 %
23.05.2022 03:04 16,6 C 16,1 C 12,8 C 81 % 1007,9 hPa 0,0 l/m 0 min 0 min 0 W/m 3,2 km/h (1 Bft) 97,87 %
23.05.2022 03:02 16,6 C 16,1 C 12,8 C 81 % 1007,9 hPa 0,0 l/m 0 min 0 min 0 W/m 3,2 km/h (1 Bft) 93,62 %
23.05.2022 03:00 16,6 C 16,1 C 12,8 C 81 % 1007,9 hPa 0,0 l/m 0 min 0 min 0 W/m 3,2 km/h (1 Bft) 93,62 %
23.05.2022 02:58 16,6 C 16,1 C 12,8 C 82 % 1007,9 hPa 0,0 l/m 0 min 0 min 0 W/m 3,2 km/h (1 Bft) 95,65 %
23.05.2022 02:56 16,6 C 16,1 C 12,8 C 82 % 1007,9 hPa 0,0 l/m 0 min 0 min 0 W/m 3,2 km/h (1 Bft) 95,74 %
23.05.2022 02:54 16,6 C 16,1 C 12,8 C 82 % 1007,9 hPa 0,0 l/m 0 min 0 min 0 W/m 3,2 km/h (1 Bft) 95,74 %
23.05.2022 02:52 16,6 C 16,1 C 12,8 C 82 % 1008,0 hPa 0,0 l/m 0 min 0 min 0 W/m 6,4 km/h (2 Bft) 93,62 %
23.05.2022 02:50 16,6 C 16,1 C 12,8 C 83 % 1008,0 hPa 0,0 l/m 0 min 0 min 0 W/m 6,4 km/h (2 Bft) 95,74 %
23.05.2022 02:48 16,6 C 16,1 C 12,2 C 83 % 1008,0 hPa 0,0 l/m 0 min 0 min 0 W/m 3,2 km/h (1 Bft) 95,74 %
23.05.2022 02:46 16,6 C 15,6 C 12,2 C 83 % 1008,0 hPa 0,0 l/m 0 min 0 min 0 W/m 3,2 km/h (1 Bft) 95,65 %
23.05.2022 02:44 16,6 C 15,6 C 12,2 C 83 % 1008,0 hPa 0,0 l/m 0 min 0 min 0 W/m 3,2 km/h (1 Bft) 95,74 %
23.05.2022 02:42 16,6 C 16,1 C 12,2 C 83 % 1008,1 hPa 0,0 l/m 0 min 0 min 0 W/m 3,2 km/h (1 Bft) 95,74 %
23.05.2022 02:40 16,6 C 15,6 C 12,2 C 83 % 1008,1 hPa 0,0 l/m 0 min 0 min 0 W/m 3,2 km/h (1 Bft) 93,62 %
23.05.2022 02:38 16,6 C 15,6 C 12,2 C 82 % 1008,2 hPa 0,0 l/m 0 min 0 min 0 W/m 3,2 km/h (1 Bft) 93,62 %
23.05.2022 02:36 16,7 C 16,1 C 12,2 C 83 % 1008,2 hPa 0,0 l/m 0 min 0 min 0 W/m 3,2 km/h (1 Bft) 97,87 %
23.05.2022 02:34 16,7 C 16,1 C 12,2 C 82 % 1008,2 hPa 0,0 l/m 0 min 0 min 0 W/m 3,2 km/h (1 Bft) 97,83 %
23.05.2022 02:32 16,7 C 16,1 C 12,8 C 82 % 1008,2 hPa 0,0 l/m 0 min 0 min 0 W/m 0,0 km/h (0 Bft) 97,87 %
23.05.2022 02:30 16,7 C 16,1 C 12,8 C 82 % 1008,2 hPa 0,0 l/m 0 min 0 min 0 W/m 0,0 km/h (0 Bft) 97,87 %
23.05.2022 02:28 16,6 C 16,1 C 12,8 C 82 % 1008,3 hPa 0,0 l/m 0 min 0 min 0 W/m 0,0 km/h (0 Bft) 95,74 %
23.05.2022 02:26 16,6 C 16,1 C 12,8 C 82 % 1008,3 hPa 0,0 l/m 0 min 0 min 0 W/m 0,0 km/h (0 Bft) 97,87 %
23.05.2022 02:24 16,6 C 16,1 C 12,8 C 82 % 1008,3 hPa 0,0 l/m 0 min 0 min 0 W/m 0,0 km/h (0 Bft) 97,87 %
23.05.2022 02:22 16,6 C 16,1 C 12,8 C 82 % 1008,3 hPa 0,0 l/m 0 min 0 min 0 W/m 3,2 km/h (1 Bft) 97,83 %
23.05.2022 02:20 16,6 C 16,1 C 12,8 C 81 % 1008,3 hPa 0,0 l/m 0 min 0 min 0 W/m 3,2 km/h (1 Bft) 97,87 %
23.05.2022 02:18 16,6 C 16,1 C 12,8 C 81 % 1008,3 hPa 0,0 l/m 0 min 0 min 0 W/m 3,2 km/h (1 Bft) 100,00 %
23.05.2022 02:16 16,6 C 16,1 C 12,8 C 81 % 1008,4 hPa 0,0 l/m 0 min 0 min 0 W/m 3,2 km/h (1 Bft) 100,00 %
23.05.2022 02:14 16,6 C 16,1 C 12,8 C 81 % 1008,4 hPa 0,0 l/m 0 min 0 min 0 W/m 3,2 km/h (1 Bft) 97,87 %
23.05.2022 02:12 16,6 C 16,1 C 12,8 C 81 % 1008,3 hPa 0,0 l/m 0 min 0 min 0 W/m 3,2 km/h (1 Bft) 97,87 %
23.05.2022 02:10 16,6 C 16,1 C 12,8 C 81 % 1008,4 hPa 0,0 l/m 0 min 0 min 0 W/m 6,4 km/h (2 Bft) 100,00 %
23.05.2022 02:08 16,6 C 16,1 C 12,8 C 81 % 1008,4 hPa 0,0 l/m 0 min 0 min 0 W/m 6,4 km/h (2 Bft) 100,00 %
23.05.2022 02:06 16,6 C 16,1 C 12,8 C 81 % 1008,4 hPa 0,0 l/m 0 min 0 min 0 W/m 6,4 km/h (2 Bft) 100,00 %
23.05.2022 02:04 16,6 C 16,1 C 12,8 C 81 % 1008,4 hPa 0,0 l/m 0 min 0 min 0 W/m 6,4 km/h (2 Bft) 97,87 %
23.05.2022 02:02 16,5 C 16,1 C 12,8 C 81 % 1008,4 hPa 0,0 l/m 0 min 0 min 0 W/m 3,2 km/h (1 Bft) 100,00 %
23.05.2022 02:00 16,5 C 16,1 C 12,8 C 82 % 1008,5 hPa 0,0 l/m 0 min 0 min 0 W/m 6,4 km/h (2 Bft) 100,00 %
23.05.2022 01:58 16,5 C 16,1 C 12,2 C 82 % 1008,5 hPa 0,0 l/m 0 min 0 min 0 W/m 6,4 km/h (2 Bft) 97,83 %
23.05.2022 01:56 16,5 C 16,1 C 12,2 C 81 % 1008,5 hPa 0,0 l/m 0 min 0 min 0 W/m 3,2 km/h (1 Bft) 97,87 %
23.05.2022 01:54 16,5 C 16,1 C 12,2 C 82 % 1008,6 hPa 0,0 l/m 0 min 0 min 0 W/m 3,2 km/h (1 Bft) 100,00 %
23.05.2022 01:52 16,5 C 16,1 C 12,2 C 82 % 1008,6 hPa 0,0 l/m 0 min 0 min 0 W/m 3,2 km/h (1 Bft) 97,87 %
23.05.2022 01:50 16,5 C 16,1 C 12,2 C 81 % 1008,7 hPa 0,0 l/m 0 min 0 min 0 W/m 3,2 km/h (1 Bft) 95,74 %
23.05.2022 01:48 16,5 C 15,6 C 12,2 C 81 % 1008,7 hPa 0,0 l/m 0 min 0 min 0 W/m 3,2 km/h (1 Bft) 97,87 %
23.05.2022 01:46 16,5 C 15,6 C 12,2 C 81 % 1008,8 hPa 0,0 l/m 0 min 0 min 0 W/m 3,2 km/h (1 Bft) 97,83 %
23.05.2022 01:44 16,5 C 15,6 C 12,2 C 81 % 1008,9 hPa 0,0 l/m 0 min 0 min 0 W/m 3,2 km/h (1 Bft) 97,87 %
23.05.2022 01:42 16,5 C 15,6 C 12,2 C 81 % 1008,9 hPa 0,0 l/m 0 min 0 min 0 W/m 3,2 km/h (1 Bft) 97,87 %
23.05.2022 01:40 16,5 C 15,6 C 12,2 C 81 % 1008,9 hPa 0,0 l/m 0 min 0 min 0 W/m 3,2 km/h (1 Bft) 97,87 %
23.05.2022 01:38 16,5 C 15,6 C 12,8 C 81 % 1008,9 hPa 0,0 l/m 0 min 0 min 0 W/m 6,4 km/h (2 Bft) 97,87 %
23.05.2022 01:36 16,4 C 15,6 C 12,2 C 81 % 1008,9 hPa 0,0 l/m 0 min 0 min 0 W/m 3,2 km/h (1 Bft) 97,87 %
23.05.2022 01:34 16,5 C 15,6 C 12,2 C 81 % 1009,0 hPa 0,0 l/m 0 min 0 min 0 W/m 3,2 km/h (1 Bft) 97,83 %
23.05.2022 01:32 16,5 C 15,6 C 12,2 C 81 % 1008,9 hPa 0,0 l/m 0 min 0 min 0 W/m 3,2 km/h (1 Bft) 97,87 %
23.05.2022 01:30 16,5 C 15,6 C 12,2 C 81 % 1008,9 hPa 0,0 l/m 0 min 0 min 0 W/m 3,2 km/h (1 Bft) 97,87 %
23.05.2022 01:28 16,5 C 15,6 C 12,2 C 81 % 1009,0 hPa 0,0 l/m 0 min 0 min 0 W/m 3,2 km/h (1 Bft) 97,87 %
23.05.2022 01:26 16,5 C 15,6 C 12,2 C 81 % 1009,0 hPa 0,0 l/m 0 min 0 min 0 W/m 3,2 km/h (1 Bft) 97,87 %
23.05.2022 01:24 16,5 C 15,6 C 12,2 C 81 % 1008,9 hPa 0,0 l/m 0 min 0 min 0 W/m 3,2 km/h (1 Bft) 98,11 %
23.05.2022 01:22 16,5 C 15,6 C 12,2 C 81 % 1008,9 hPa 0,0 l/m 0 min 0 min 0 W/m 3,2 km/h (1 Bft) 97,87 %
23.05.2022 01:20 16,6 C 16,1 C 12,8 C 82 % 1008,9 hPa 0,0 l/m 0 min 0 min 0 W/m 3,2 km/h (1 Bft) 100,00 %
23.05.2022 01:18 16,6 C 16,1 C 12,8 C 82 % 1008,8 hPa 0,0 l/m 0 min 0 min 0 W/m 3,2 km/h (1 Bft) 95,74 %
23.05.2022 01:16 16,6 C 16,1 C 12,8 C 82 % 1008,9 hPa 0,0 l/m 0 min 0 min 0 W/m 3,2 km/h (1 Bft) 100,00 %
23.05.2022 01:14 16,5 C 16,1 C 12,8 C 82 % 1009,0 hPa 0,0 l/m 0 min 0 min 0 W/m 3,2 km/h (1 Bft) 100,00 %
23.05.2022 01:12 16,5 C 16,1 C 12,8 C 82 % 1009,0 hPa 0,0 l/m 0 min 0 min 0 W/m 3,2 km/h (1 Bft) 97,87 %
23.05.2022 01:10 16,5 C 16,1 C 12,8 C 82 % 1009,0 hPa 0,0 l/m 0 min 0 min 0 W/m 3,2 km/h (1 Bft) 100,00 %
23.05.2022 01:08 16,4 C 16,1 C 12,8 C 82 % 1009,0 hPa 0,0 l/m 0 min 0 min 0 W/m 0,0 km/h (0 Bft) 100,00 %
23.05.2022 01:06 16,4 C 16,1 C 12,8 C 81 % 1009,0 hPa 0,0 l/m 0 min 0 min 0 W/m 3,2 km/h (1 Bft) 100,00 %
23.05.2022 01:04 16,4 C 16,1 C 12,8 C 81 % 1008,9 hPa 0,0 l/m 0 min 0 min 0 W/m 3,2 km/h (1 Bft) 97,87 %
23.05.2022 01:02 16,4 C 16,1 C 12,2 C 81 % 1008,9 hPa 0,0 l/m 0 min 0 min 0 W/m 3,2 km/h (1 Bft) 100,00 %
23.05.2022 01:00 16,4 C 16,1 C 12,2 C 81 % 1009,0 hPa 0,0 l/m 0 min 0 min 0 W/m 6,4 km/h (2 Bft) 100,00 %
23.05.2022 00:58 16,4 C 16,1 C 12,2 C 81 % 1009,0 hPa 0,0 l/m 0 min 0 min 0 W/m 6,4 km/h (2 Bft) 100,00 %
23.05.2022 00:56 16,4 C 16,1 C 12,2 C 81 % 1009,0 hPa 0,0 l/m 0 min 0 min 0 W/m 6,4 km/h (2 Bft) 100,00 %
23.05.2022 00:54 16,4 C 16,1 C 12,2 C 81 % 1009,0 hPa 0,0 l/m 0 min 0 min 0 W/m 9,7 km/h (2 Bft) 100,00 %
23.05.2022 00:52 16,4 C 16,1 C 12,2 C 82 % 1008,9 hPa 0,0 l/m 0 min 0 min 0 W/m 6,4 km/h (2 Bft) 100,00 %
23.05.2022 00:50 16,4 C 15,6 C 12,2 C 82 % 1008,9 hPa 0,0 l/m 0 min 0 min 0 W/m 6,4 km/h (2 Bft) 100,00 %
23.05.2022 00:48 16,4 C 15,6 C 12,2 C 82 % 1008,9 hPa 0,0 l/m 0 min 0 min 0 W/m 6,4 km/h (2 Bft) 100,00 %
23.05.2022 00:46 16,5 C 15,6 C 12,2 C 82 % 1008,9 hPa 0,0 l/m 0 min 0 min 0 W/m 6,4 km/h (2 Bft) 100,00 %
23.05.2022 00:44 16,5 C 15,6 C 12,2 C 82 % 1009,0 hPa 0,0 l/m 0 min 0 min 0 W/m 6,4 km/h (2 Bft) 100,00 %
23.05.2022 00:42 16,6 C 15,6 C 12,2 C 82 % 1009,1 hPa 0,0 l/m 0 min 0 min 0 W/m 3,2 km/h (1 Bft) 100,00 %
23.05.2022 00:40 16,6 C 15,6 C 12,2 C 82 % 1009,2 hPa 0,0 l/m 0 min 0 min 0 W/m 3,2 km/h (1 Bft) 100,00 %
23.05.2022 00:38 16,6 C 16,1 C 12,2 C 82 % 1009,4 hPa 0,0 l/m 0 min 0 min 0 W/m 3,2 km/h (1 Bft) 97,87 %
23.05.2022 00:36 16,6 C 16,1 C 12,2 C 82 % 1009,5 hPa 0,0 l/m 0 min 0 min 0 W/m 6,4 km/h (2 Bft) 100,00 %
23.05.2022 00:34 16,6 C 16,1 C 12,2 C 81 % 1009,6 hPa 0,0 l/m 0 min 0 min 0 W/m 3,2 km/h (1 Bft) 100,00 %
23.05.2022 00:32 16,6 C 16,1 C 12,2 C 81 % 1009,6 hPa 0,0 l/m 0 min 0 min 0 W/m 3,2 km/h (1 Bft) 100,00 %
23.05.2022 00:30 16,6 C 16,1 C 12,8 C 81 % 1009,7 hPa 0,0 l/m 0 min 0 min 0 W/m 3,2 km/h (1 Bft) 97,87 %
23.05.2022 00:28 16,6 C 16,1 C 12,2 C 81 % 1009,7 hPa 0,0 l/m 0 min 0 min 0 W/m 3,2 km/h (1 Bft) 97,87 %
23.05.2022 00:26 16,6 C 16,1 C 12,8 C 81 % 1009,7 hPa 0,0 l/m 0 min 0 min 0 W/m 3,2 km/h (1 Bft) 95,65 %
23.05.2022 00:24 16,6 C 16,1 C 12,8 C 81 % 1009,7 hPa 0,0 l/m 0 min 0 min 0 W/m 3,2 km/h (1 Bft) 95,74 %
23.05.2022 00:22 16,6 C 16,1 C 12,8 C 81 % 1009,7 hPa 0,0 l/m 0 min 0 min 0 W/m 0,0 km/h (0 Bft) 95,74 %
23.05.2022 00:20 16,6 C 16,1 C 12,8 C 81 % 1009,7 hPa 0,0 l/m 0 min 0 min 0 W/m 3,2 km/h (1 Bft) 95,74 %
23.05.2022 00:18 16,6 C 16,1 C 12,8 C 81 % 1009,8 hPa 0,0 l/m 0 min 0 min 0 W/m 3,2 km/h (1 Bft) 91,49 %
23.05.2022 00:16 16,6 C 16,1 C 12,8 C 81 % 1009,8 hPa 0,0 l/m 0 min 0 min 0 W/m 0,0 km/h (0 Bft) 95,65 %
23.05.2022 00:14 16,7 C 16,1 C 12,8 C 81 % 1009,8 hPa 0,0 l/m 0 min 0 min 0 W/m 3,2 km/h (1 Bft) 95,74 %
23.05.2022 00:12 16,7 C 16,1 C 12,8 C 81 % 1009,8 hPa 0,0 l/m 0 min 0 min 0 W/m 0,0 km/h (0 Bft) 95,74 %
23.05.2022 00:10 16,7 C 16,1 C 12,8 C 81 % 1009,8 hPa 0,0 l/m 0 min 0 min 0 W/m 3,2 km/h (1 Bft) 95,74 %
23.05.2022 00:08 16,7 C 16,1 C 12,8 C 81 % 1009,8 hPa 0,0 l/m 0 min 0 min 0 W/m 3,2 km/h (1 Bft) 96,81 %
23.05.2022 00:04 16,8 C 16,1 C 12,8 C 81 % 1009,7 hPa 0,0 l/m 0 min 0 min 0 W/m 3,2 km/h (1 Bft) 95,74 %
23.05.2022 00:02 16,8 C 16,1 C 12,8 C 81 % 1009,8 hPa 0,0 l/m 0 min 0 min 0 W/m 3,2 km/h (1 Bft) 92,11 %
23.05.2022 00:00 16,8 C 16,1 C 12,8 C 81 % 1009,8 hPa 0,0 l/m 0 min 0 min 0 W/m 0,0 km/h (0 Bft) 93,62 %
22.05.2022 23:58 16,8 C 16,1 C 12,8 C 81 % 1009,8 hPa 0,0 l/m 0 min 0 min 0 W/m 0,0 km/h (0 Bft) 93,62 %
22.05.2022 23:56 16,8 C 15,6 C 12,8 C 80 % 1009,8 hPa 0,0 l/m 0 min 0 min 0 W/m 3,2 km/h (1 Bft) 93,62 %
22.05.2022 23:54 16,8 C 16,1 C 12,8 C 80 % 1009,8 hPa 0,0 l/m 0 min 0 min 0 W/m 3,2 km/h (1 Bft) 95,74 %
22.05.2022 23:52 16,9 C 16,1 C 12,8 C 81 % 1009,8 hPa 0,0 l/m 0 min 0 min 0 W/m 6,4 km/h (2 Bft) 91,30 %
22.05.2022 23:50 16,9 C 16,1 C 12,8 C 81 % 1009,8 hPa 0,0 l/m 0 min 0 min 0 W/m 3,2 km/h (1 Bft) 95,74 %
22.05.2022 23:48 16,9 C 16,1 C 12,8 C 81 % 1009,7 hPa 0,0 l/m 0 min 0 min 0 W/m 3,2 km/h (1 Bft) 95,74 %
22.05.2022 23:46 16,9 C 16,1 C 12,8 C 80 % 1009,8 hPa 0,0 l/m 0 min 0 min 0 W/m 3,2 km/h (1 Bft) 93,62 %
22.05.2022 23:44 16,9 C 16,1 C 12,8 C 80 % 1009,8 hPa 0,0 l/m 0 min 0 min 0 W/m 3,2 km/h (1 Bft) 95,74 %
22.05.2022 23:42 17,0 C 16,1 C 12,8 C 80 % 1009,8 hPa 0,0 l/m 0 min 0 min 0 W/m 3,2 km/h (1 Bft) 93,62 %
22.05.2022 23:40 17,0 C 16,1 C 12,8 C 80 % 1009,9 hPa 0,0 l/m 0 min 0 min 0 W/m 0,0 km/h (0 Bft) 95,74 %
22.05.2022 23:38 17,0 C 16,1 C 12,8 C 80 % 1009,9 hPa 0,0 l/m 0 min 0 min 0 W/m 3,2 km/h (1 Bft) 93,48 %
22.05.2022 23:36 17,1 C 16,1 C 12,8 C 80 % 1009,9 hPa 0,0 l/m 0 min 0 min 0 W/m 3,2 km/h (1 Bft) 95,74 %
22.05.2022 23:34 17,1 C 16,1 C 12,8 C 80 % 1010,0 hPa 0,0 l/m 0 min 0 min 0 W/m 3,2 km/h (1 Bft) 95,74 %
22.05.2022 23:32 17,1 C 16,1 C 12,8 C 80 % 1010,0 hPa 0,0 l/m 0 min 0 min 0 W/m 3,2 km/h (1 Bft) 97,87 %
22.05.2022 23:30 17,1 C 16,1 C 12,8 C 80 % 1009,9 hPa 0,0 l/m 0 min 0 min 0 W/m 3,2 km/h (1 Bft) 100,00 %
22.05.2022 23:28 17,2 C 16,1 C 12,8 C 80 % 1009,9 hPa 0,0 l/m 0 min 0 min 0 W/m 3,2 km/h (1 Bft) 100,00 %
22.05.2022 23:26 17,2 C 16,1 C 12,8 C 80 % 1009,9 hPa 0,0 l/m 0 min 0 min 0 W/m 3,2 km/h (1 Bft) 97,83 %
22.05.2022 23:24 17,2 C 16,1 C 12,8 C 79 % 1009,9 hPa 0,0 l/m 0 min 0 min 0 W/m 3,2 km/h (1 Bft) 95,74 %
22.05.2022 23:22 17,2 C 16,1 C 12,8 C 79 % 1009,9 hPa 0,0 l/m 0 min 0 min 0 W/m 3,2 km/h (1 Bft) 100,00 %
22.05.2022 23:20 17,3 C 16,1 C 12,8 C 79 % 1009,9 hPa 0,0 l/m 0 min 0 min 0 W/m 3,2 km/h (1 Bft) 100,00 %
22.05.2022 23:18 17,3 C 16,1 C 12,8 C 79 % 1009,9 hPa 0,0 l/m 0 min 0 min 0 W/m 3,2 km/h (1 Bft) 100,00 %
22.05.2022 23:16 17,3 C 16,1 C 13,3 C 79 % 1009,9 hPa 0,0 l/m 0 min 0 min 0 W/m 3,2 km/h (1 Bft) 100,00 %
22.05.2022 23:14 17,3 C 16,1 C 13,3 C 79 % 1010,0 hPa 0,0 l/m 0 min 0 min 0 W/m 3,2 km/h (1 Bft) 100,00 %
22.05.2022 23:12 17,4 C 16,7 C 13,3 C 79 % 1010,0 hPa 0,0 l/m 0 min 0 min 0 W/m 3,2 km/h (1 Bft) 100,00 %
22.05.2022 23:11 17,4 C 16,7 C 13,3 C 79 % 1010,0 hPa 0,0 l/m 0 min 0 min 0 W/m 3,2 km/h (1 Bft) 98,28 %
22.05.2022 23:05 17,5 C 16,7 C 13,3 C 79 % 1010,1 hPa 0,0 l/m 0 min 0 min 0 W/m 3,2 km/h (1 Bft) 100,00 %
22.05.2022 23:04 17,6 C 16,7 C 13,3 C 79 % 1010,0 hPa 0,0 l/m 0 min 0 min 0 W/m 3,2 km/h (1 Bft) 97,14 %
22.05.2022 23:02 17,6 C 16,7 C 13,3 C 79 % 1010,1 hPa 0,0 l/m 0 min 0 min 0 W/m 3,2 km/h (1 Bft) 100,00 %
22.05.2022 23:00 17,6 C 16,7 C 13,3 C 78 % 1010,1 hPa 0,0 l/m 0 min 0 min 0 W/m 3,2 km/h (1 Bft) 100,00 %
22.05.2022 22:58 17,6 C 16,7 C 13,3 C 78 % 1010,1 hPa 0,0 l/m 0 min 0 min 0 W/m 3,2 km/h (1 Bft) 100,00 %
22.05.2022 22:56 17,6 C 16,7 C 13,3 C 78 % 1010,1 hPa 0,0 l/m 0 min 0 min 0 W/m 3,2 km/h (1 Bft) 100,00 %
22.05.2022 22:54 17,7 C 16,7 C 13,3 C 78 % 1010,1 hPa 0,0 l/m 0 min 0 min 0 W/m 3,2 km/h (1 Bft) 100,00 %
22.05.2022 22:52 17,7 C 16,7 C 13,3 C 78 % 1010,1 hPa 0,0 l/m 0 min 0 min 0 W/m 3,2 km/h (1 Bft) 100,00 %
22.05.2022 22:50 17,8 C 16,7 C 13,3 C 78 % 1010,1 hPa 0,0 l/m 0 min 0 min 0 W/m 3,2 km/h (1 Bft) 100,00 %
22.05.2022 22:48 17,8 C 16,7 C 13,3 C 78 % 1010,2 hPa 0,0 l/m 0 min 0 min 0 W/m 3,2 km/h (1 Bft) 100,00 %
22.05.2022 22:46 17,8 C 16,7 C 13,3 C 78 % 1010,2 hPa 0,0 l/m 0 min 0 min 0 W/m 6,4 km/h (2 Bft) 97,87 %
22.05.2022 22:44 17,8 C 16,7 C 13,3 C 78 % 1010,2 hPa 0,0 l/m 0 min 0 min 0 W/m 6,4 km/h (2 Bft) 100,00 %
22.05.2022 22:42 17,9 C 16,7 C 13,3 C 77 % 1010,3 hPa 0,0 l/m 0 min 0 min 0 W/m 3,2 km/h (1 Bft) 100,00 %
22.05.2022 22:40 17,9 C 16,7 C 13,3 C 77 % 1010,2 hPa 0,0 l/m 0 min 0 min 0 W/m 3,2 km/h (1 Bft) 100,00 %
22.05.2022 22:38 18,0 C 16,7 C 13,3 C 77 % 1010,3 hPa 0,0 l/m 0 min 0 min 0 W/m 3,2 km/h (1 Bft) 100,00 %
22.05.2022 22:36 18,0 C 17,2 C 13,9 C 77 % 1010,3 hPa 0,0 l/m 0 min 0 min 0 W/m 3,2 km/h (1 Bft) 100,00 %
22.05.2022 22:34 18,1 C 17,2 C 13,9 C 77 % 1010,3 hPa 0,0 l/m 0 min 0 min 0 W/m 6,4 km/h (2 Bft) 100,00 %
22.05.2022 22:32 18,1 C 17,2 C 13,9 C 77 % 1010,3 hPa 0,0 l/m 0 min 0 min 0 W/m 6,4 km/h (2 Bft) 100,00 %
22.05.2022 22:30 18,2 C 17,2 C 13,9 C 77 % 1010,3 hPa 0,0 l/m 0 min 0 min 0 W/m 6,4 km/h (2 Bft) 100,00 %
22.05.2022 22:28 18,2 C 17,2 C 13,9 C 77 % 1010,3 hPa 0,0 l/m 0 min 0 min 0 W/m 3,2 km/h (1 Bft) 100,00 %
22.05.2022 22:26 18,2 C 17,2 C 13,9 C 77 % 1010,3 hPa 0,0 l/m 0 min 0 min 0 W/m 3,2 km/h (1 Bft) 100,00 %
22.05.2022 22:24 18,3 C 17,2 C 13,9 C 76 % 1010,3 hPa 0,0 l/m 0 min 0 min 0 W/m 3,2 km/h (1 Bft) 100,00 %
22.05.2022 22:22 18,3 C 17,2 C 13,9 C 77 % 1010,3 hPa 0,0 l/m 0 min 0 min 0 W/m 3,2 km/h (1 Bft) 100,00 %
22.05.2022 22:20 18,3 C 17,2 C 13,9 C 76 % 1010,3 hPa 0,0 l/m 0 min 0 min 0 W/m 3,2 km/h (1 Bft) 100,00 %
22.05.2022 22:18 18,3 C 17,2 C 13,9 C 76 % 1010,3 hPa 0,0 l/m 0 min 0 min 0 W/m 3,2 km/h (1 Bft) 100,00 %
22.05.2022 22:16 18,4 C 17,2 C 13,9 C 76 % 1010,3 hPa 0,0 l/m 0 min 0 min 0 W/m 3,2 km/h (1 Bft) 95,74 %
22.05.2022 22:14 18,4 C 17,2 C 13,9 C 75 % 1010,3 hPa 0,0 l/m 0 min 0 min 0 W/m 3,2 km/h (1 Bft) 97,87 %
22.05.2022 22:12 18,4 C 17,2 C 13,9 C 75 % 1010,3 hPa 0,0 l/m 0 min 0 min 0 W/m 6,4 km/h (2 Bft) 97,87 %
22.05.2022 22:10 18,5 C 17,2 C 13,9 C 75 % 1010,4 hPa 0,0 l/m 0 min 0 min 0 W/m 3,2 km/h (1 Bft) 97,14 %
22.05.2022 22:08 18,6 C 17,8 C 13,9 C 75 % 1010,4 hPa 0,0 l/m 0 min 0 min 0 W/m 3,2 km/h (1 Bft) 97,87 %
22.05.2022 22:06 18,6 C 17,8 C 13,9 C 75 % 1010,4 hPa 0,0 l/m 0 min 0 min 0 W/m 6,4 km/h (2 Bft) 94,83 %
22.05.2022 22:04 18,6 C 17,8 C 13,9 C 75 % 1010,5 hPa 0,0 l/m 0 min 0 min 0 W/m 3,2 km/h (1 Bft) 95,74 %
22.05.2022 22:02 18,7 C 17,8 C 13,9 C 75 % 1010,4 hPa 0,0 l/m 0 min 0 min 0 W/m 3,2 km/h (1 Bft) 95,74 %
22.05.2022 22:00 18,7 C 17,8 C 14,4 C 74 % 1010,4 hPa 0,0 l/m 0 min 0 min 0 W/m 6,4 km/h (2 Bft) 95,74 %
22.05.2022 21:58 18,8 C 17,8 C 14,4 C 74 % 1010,4 hPa 0,0 l/m 0 min 0 min 0 W/m 6,4 km/h (2 Bft) 95,74 %
22.05.2022 21:56 18,8 C 17,8 C 14,4 C 74 % 1010,4 hPa 0,0 l/m 0 min 0 min 0 W/m 6,4 km/h (2 Bft) 95,65 %
22.05.2022 21:54 18,9 C 17,8 C 14,4 C 74 % 1010,4 hPa 0,0 l/m 0 min 0 min 0 W/m 6,4 km/h (2 Bft) 95,74 %
22.05.2022 21:52 18,9 C 17,8 C 14,4 C 73 % 1010,4 hPa 0,0 l/m 0 min 0 min 0 W/m 6,4 km/h (2 Bft) 95,74 %
22.05.2022 21:50 18,9 C 17,8 C 14,4 C 73 % 1010,4 hPa 0,0 l/m 0 min 0 min 0 W/m 3,2 km/h (1 Bft) 95,74 %
22.05.2022 21:48 19,0 C 17,8 C 14,4 C 73 % 1010,4 hPa 0,0 l/m 0 min 0 min 0 W/m 6,4 km/h (2 Bft) 95,74 %
22.05.2022 21:46 19,1 C 17,8 C 14,4 C 73 % 1010,4 hPa 0,0 l/m 0 min 0 min 0 W/m 6,4 km/h (2 Bft) 97,87 %
22.05.2022 21:44 19,2 C 17,8 C 14,4 C 73 % 1010,4 hPa 0,0 l/m 0 min 0 min 0 W/m 3,2 km/h (1 Bft) 97,14 %
22.05.2022 21:42 19,2 C 18,3 C 14,4 C 72 % 1010,4 hPa 0,0 l/m 0 min 0 min 0 W/m 6,4 km/h (2 Bft) 95,74 %
22.05.2022 21:40 19,3 C 18,3 C 14,4 C 72 % 1010,4 hPa 0,0 l/m 0 min 0 min 0 W/m 6,4 km/h (2 Bft) 97,83 %
22.05.2022 21:38 19,3 C 18,3 C 14,4 C 72 % 1010,4 hPa 0,0 l/m 0 min 0 min 0 W/m 6,4 km/h (2 Bft) 97,87 %
22.05.2022 21:36 19,3 C 18,3 C 15,0 C 72 % 1010,5 hPa 0,0 l/m 0 min 0 min 0 W/m 3,2 km/h (1 Bft) 97,87 %
22.05.2022 21:34 19,4 C 18,3 C 15,0 C 72 % 1010,5 hPa 0,0 l/m 0 min 0 min 0 W/m 6,4 km/h (2 Bft) 97,87 %
22.05.2022 21:32 19,4 C 18,3 C 15,0 C 71 % 1010,5 hPa 0,0 l/m 0 min 0 min 0 W/m 6,4 km/h (2 Bft) 95,74 %
22.05.2022 21:30 19,5 C 18,3 C 15,0 C 71 % 1010,5 hPa 0,0 l/m 0 min 0 min 0 W/m 6,4 km/h (2 Bft) 97,83 %
22.05.2022 21:28 19,6 C 18,3 C 15,0 C 71 % 1010,6 hPa 0,0 l/m 0 min 0 min 3 W/m 3,2 km/h (1 Bft) 95,74 %
22.05.2022 21:26 19,6 C 18,3 C 15,0 C 71 % 1010,6 hPa 0,0 l/m 0 min 0 min 5 W/m 6,4 km/h (2 Bft) 97,87 %
22.05.2022 21:24 19,6 C 18,9 C 15,0 C 70 % 1010,6 hPa 0,0 l/m 0 min 0 min 5 W/m 6,4 km/h (2 Bft) 98,31 %
22.05.2022 21:22 19,7 C 18,9 C 15,0 C 70 % 1010,6 hPa 0,0 l/m 0 min 0 min 6 W/m 6,4 km/h (2 Bft) 97,14 %
22.05.2022 21:20 19,7 C 18,9 C 15,0 C 70 % 1010,6 hPa 0,0 l/m 0 min 0 min 8 W/m 3,2 km/h (1 Bft) 95,74 %
22.05.2022 21:18 19,7 C 18,9 C 15,0 C 70 % 1010,6 hPa 0,0 l/m 0 min 0 min 10 W/m 3,2 km/h (1 Bft) 96,55 %
22.05.2022 21:16 19,8 C 18,9 C 15,0 C 70 % 1010,6 hPa 0,0 l/m 0 min 0 min 11 W/m 6,4 km/h (2 Bft) 97,87 %
22.05.2022 21:14 19,9 C 18,9 C 15,6 C 70 % 1010,6 hPa 0,0 l/m 0 min 0 min 12 W/m 6,4 km/h (2 Bft) 97,87 %
22.05.2022 21:12 19,9 C 18,9 C 15,6 C 69 % 1010,6 hPa 0,0 l/m 0 min 0 min 14 W/m 6,4 km/h (2 Bft) 95,74 %
22.05.2022 21:10 20,1 C 18,9 C 15,6 C 70 % 1010,6 hPa 0,0 l/m 0 min 0 min 14 W/m 3,2 km/h (1 Bft) 97,14 %
22.05.2022 21:08 20,1 C 18,9 C 15,6 C 69 % 1010,7 hPa 0,0 l/m 0 min 0 min 16 W/m 3,2 km/h (1 Bft) 97,87 %
22.05.2022 21:06 20,2 C 18,9 C 15,6 C 70 % 1010,6 hPa 0,0 l/m 0 min 0 min 16 W/m 9,7 km/h (2 Bft) 96,55 %
22.05.2022 21:04 20,2 C 18,9 C 15,6 C 70 % 1010,7 hPa 0,0 l/m 0 min 0 min 17 W/m 6,4 km/h (2 Bft) 97,14 %
22.05.2022 21:02 20,3 C 19,4 C 15,6 C 69 % 1010,7 hPa 0,0 l/m 0 min 0 min 18 W/m 3,2 km/h (1 Bft) 97,87 %
22.05.2022 21:00 20,3 C 19,4 C 15,6 C 69 % 1010,7 hPa 0,0 l/m 0 min 0 min 19 W/m 3,2 km/h (1 Bft) 98,31 %
22.05.2022 20:58 20,3 C 19,4 C 15,6 C 69 % 1010,7 hPa 0,0 l/m 0 min 0 min 19 W/m 6,4 km/h (2 Bft) 97,14 %
22.05.2022 20:56 20,4 C 19,4 C 15,6 C 69 % 1010,8 hPa 0,0 l/m 0 min 0 min 19 W/m 6,4 km/h (2 Bft) 97,87 %
22.05.2022 20:54 20,5 C 19,4 C 16,1 C 68 % 1010,8 hPa 0,0 l/m 0 min 0 min 21 W/m 6,4 km/h (2 Bft) 97,83 %
22.05.2022 20:52 20,6 C 19,4 C 16,1 C 68 % 1010,7 hPa 0,0 l/m 0 min 0 min 21 W/m 9,7 km/h (2 Bft) 97,87 %
22.05.2022 20:50 20,7 C 19,4 C 16,1 C 69 % 1010,7 hPa 0,0 l/m 0 min 0 min 23 W/m 3,2 km/h (1 Bft) 97,87 %
22.05.2022 20:48 20,7 C 19,4 C 16,1 C 68 % 1010,8 hPa 0,0 l/m 0 min 0 min 25 W/m 3,2 km/h (1 Bft) 95,74 %
22.05.2022 20:46 20,8 C 19,4 C 16,1 C 68 % 1010,8 hPa 0,0 l/m 0 min 0 min 26 W/m 6,4 km/h (2 Bft) 97,87 %
22.05.2022 20:44 20,8 C 20,0 C 16,1 C 68 % 1010,8 hPa 0,0 l/m 0 min 0 min 28 W/m 3,2 km/h (1 Bft) 98,28 %
22.05.2022 20:42 20,9 C 20,0 C 16,1 C 68 % 1010,8 hPa 0,0 l/m 0 min 0 min 29 W/m 3,2 km/h (1 Bft) 97,87 %
22.05.2022 20:40 20,9 C 20,0 C 16,1 C 67 % 1010,8 hPa 0,0 l/m 0 min 0 min 31 W/m 6,4 km/h (2 Bft) 97,14 %
22.05.2022 20:38 21,1 C 20,0 C 16,1 C 67 % 1010,8 hPa 0,0 l/m 0 min 0 min 32 W/m 3,2 km/h (1 Bft) 97,87 %
22.05.2022 20:36 21,1 C 20,0 C 16,1 C 66 % 1010,8 hPa 0,0 l/m 0 min 0 min 33 W/m 3,2 km/h (1 Bft) 93,22 %
22.05.2022 20:34 21,2 C 20,0 C 16,7 C 66 % 1010,8 hPa 0,0 l/m 0 min 0 min 33 W/m 9,7 km/h (2 Bft) 100,00 %
22.05.2022 20:32 21,3 C 20,0 C 16,7 C 65 % 1010,8 hPa 0,0 l/m 0 min 0 min 34 W/m 6,4 km/h (2 Bft) 95,74 %
22.05.2022 20:30 21,3 C 20,0 C 16,7 C 65 % 1010,8 hPa 0,0 l/m 0 min 0 min 35 W/m 3,2 km/h (1 Bft) 100,00 %
22.05.2022 20:28 21,4 C 20,6 C 16,7 C 65 % 1010,9 hPa 0,0 l/m 0 min 0 min 36 W/m 3,2 km/h (1 Bft) 98,31 %
22.05.2022 20:26 21,4 C 20,6 C 16,7 C 64 % 1010,9 hPa 0,0 l/m 0 min 0 min 37 W/m 6,4 km/h (2 Bft) 97,14 %
22.05.2022 20:24 21,6 C 20,6 C 16,7 C 65 % 1010,9 hPa 0,0 l/m 0 min 0 min 37 W/m 6,4 km/h (2 Bft) 100,00 %
22.05.2022 20:22 21,6 C 20,6 C 16,7 C 64 % 1010,9 hPa 0,0 l/m 0 min 0 min 39 W/m 6,4 km/h (2 Bft) 97,87 %
22.05.2022 20:20 21,7 C 20,6 C 17,2 C 64 % 1010,9 hPa 0,0 l/m 0 min 0 min 40 W/m 6,4 km/h (2 Bft) 97,87 %
22.05.2022 20:18 21,8 C 20,6 C 17,2 C 63 % 1010,9 hPa 0,0 l/m 0 min 0 min 42 W/m 6,4 km/h (2 Bft) 97,87 %
22.05.2022 20:16 21,9 C 21,1 C 17,2 C 64 % 1011,0 hPa 0,0 l/m 0 min 0 min 43 W/m 9,7 km/h (2 Bft) 98,28 %
22.05.2022 20:14 22,0 C 21,1 C 17,2 C 63 % 1011,0 hPa 0,0 l/m 0 min 0 min 46 W/m 6,4 km/h (2 Bft) 97,14 %
22.05.2022 20:12 22,1 C 21,1 C 17,2 C 63 % 1011,0 hPa 0,0 l/m 0 min 0 min 47 W/m 6,4 km/h (2 Bft) 97,87 %
22.05.2022 20:10 22,2 C 21,1 C 17,2 C 62 % 1010,9 hPa 0,0 l/m 0 min 0 min 47 W/m 3,2 km/h (1 Bft) 97,87 %
22.05.2022 20:08 22,2 C 21,7 C 17,8 C 63 % 1011,0 hPa 0,0 l/m 0 min 0 min 47 W/m 3,2 km/h (1 Bft) 97,87 %
22.05.2022 20:06 22,3 C 21,7 C 17,8 C 62 % 1011,0 hPa 0,0 l/m 0 min 0 min 51 W/m 3,2 km/h (1 Bft) 97,87 %
22.05.2022 20:04 22,3 C 21,7 C 17,8 C 61 % 1011,0 hPa 0,0 l/m 0 min 0 min 58 W/m 6,4 km/h (2 Bft) 97,83 %
22.05.2022 20:02 22,4 C 21,7 C 17,8 C 61 % 1011,1 hPa 0,0 l/m 0 min 0 min 64 W/m 12,9 km/h (3 Bft) 97,87 %
22.05.2022 20:00 22,4 C 22,2 C 17,8 C 62 % 1011,1 hPa 0,0 l/m 0 min 0 min 69 W/m 6,4 km/h (2 Bft) 97,87 %
22.05.2022 19:58 22,5 C 22,2 C 17,8 C 60 % 1011,1 hPa 0,0 l/m 0 min 0 min 71 W/m 3,2 km/h (1 Bft) 97,87 %
22.05.2022 19:56 22,6 C 22,2 C 18,3 C 60 % 1011,1 hPa 0,0 l/m 0 min 0 min 75 W/m 3,2 km/h (1 Bft) 95,74 %
22.05.2022 19:54 22,6 C 22,2 C 17,8 C 59 % 1011,1 hPa 0,0 l/m 0 min 0 min 78 W/m 6,4 km/h (2 Bft) 97,83 %
22.05.2022 19:52 22,7 C 22,2 C 18,3 C 59 % 1011,2 hPa 0,0 l/m 0 min 0 min 78 W/m 3,2 km/h (1 Bft) 97,87 %
22.05.2022 19:50 22,7 C 22,8 C 18,3 C 60 % 1011,1 hPa 0,0 l/m 0 min 0 min 80 W/m 3,2 km/h (1 Bft) 97,87 %
22.05.2022 19:48 22,8 C 22,8 C 18,3 C 59 % 1011,2 hPa 0,0 l/m 0 min 0 min 86 W/m 3,2 km/h (1 Bft) 100,00 %
22.05.2022 19:46 22,8 C 22,8 C 18,3 C 59 % 1011,1 hPa 0,0 l/m 0 min 0 min 89 W/m 3,2 km/h (1 Bft) 100,00 %
22.05.2022 19:44 22,9 C 22,8 C 18,3 C 58 % 1011,2 hPa 0,0 l/m 0 min 0 min 94 W/m 3,2 km/h (1 Bft) 100,00 %
22.05.2022 19:42 23,0 C 22,8 C 18,3 C 58 % 1011,2 hPa 0,0 l/m 0 min 0 min 97 W/m 6,4 km/h (2 Bft) 100,00 %
22.05.2022 19:40 23,1 C 22,8 C 18,3 C 57 % 1011,2 hPa 0,0 l/m 0 min 0 min 100 W/m 6,4 km/h (2 Bft) 97,87 %
22.05.2022 19:38 23,1 C 22,8 C 18,3 C 57 % 1011,1 hPa 0,0 l/m 0 min 0 min 104 W/m 6,4 km/h (2 Bft) 100,00 %
22.05.2022 19:36 23,2 C 22,8 C 18,3 C 57 % 1011,2 hPa 0,0 l/m 0 min 0 min 109 W/m 6,4 km/h (2 Bft) 100,00 %
22.05.2022 19:34 23,3 C 22,8 C 18,3 C 58 % 1011,1 hPa 0,0 l/m 2 min 0 min 151 W/m 6,4 km/h (2 Bft) 100,00 %
22.05.2022 19:32 23,3 C 22,8 C 18,3 C 57 % 1011,2 hPa 0,0 l/m 2 min 0 min 197 W/m 3,2 km/h (1 Bft) 97,87 %
22.05.2022 19:30 23,3 C 23,3 C 18,3 C 56 % 1011,2 hPa 0,0 l/m 2 min 0 min 211 W/m 6,4 km/h (2 Bft) 100,00 %
22.05.2022 19:28 23,4 C 23,3 C 18,3 C 55 % 1011,2 hPa 0,0 l/m 2 min 0 min 179 W/m 6,4 km/h (2 Bft) 100,00 %
22.05.2022 19:26 23,5 C 23,3 C 18,3 C 55 % 1011,2 hPa 0,0 l/m 0 min 0 min 137 W/m 6,4 km/h (2 Bft) 100,00 %
22.05.2022 19:24 23,6 C 23,3 C 18,3 C 56 % 1011,3 hPa 0,0 l/m 2 min 0 min 143 W/m 6,4 km/h (2 Bft) 100,00 %
22.05.2022 19:22 23,6 C 23,3 C 18,9 C 54 % 1011,2 hPa 0,0 l/m 2 min 0 min 182 W/m 3,2 km/h (1 Bft) 97,87 %
22.05.2022 19:20 23,7 C 23,3 C 18,9 C 54 % 1011,2 hPa 0,0 l/m 2 min 0 min 175 W/m 9,7 km/h (2 Bft) 95,74 %
22.05.2022 19:18 23,8 C 23,9 C 18,9 C 53 % 1011,2 hPa 0,0 l/m 2 min 0 min 152 W/m 6,4 km/h (2 Bft) 95,65 %
22.05.2022 19:16 24,0 C 23,9 C 18,9 C 53 % 1011,2 hPa 0,0 l/m 2 min 0 min 155 W/m 6,4 km/h (2 Bft) 97,87 %
22.05.2022 19:14 24,2 C 24,4 C 18,9 C 52 % 1011,3 hPa 0,0 l/m 2 min 0 min 163 W/m 6,4 km/h (2 Bft) 95,74 %
22.05.2022 19:12 24,3 C 25,0 C 19,4 C 53 % 1011,3 hPa 0,0 l/m 2 min 0 min 185 W/m 6,4 km/h (2 Bft) 95,74 %
22.05.2022 19:10 24,3 C 25,6 C 19,4 C 53 % 1011,3 hPa 0,0 l/m 2 min 0 min 183 W/m 6,4 km/h (2 Bft) 97,87 %
22.05.2022 19:08 24,4 C 26,1 C 19,4 C 53 % 1011,3 hPa 0,0 l/m 2 min 0 min 205 W/m 9,7 km/h (2 Bft) 97,87 %
22.05.2022 19:06 24,5 C 26,7 C 19,4 C 52 % 1011,3 hPa 0,0 l/m 2 min 0 min 240 W/m 9,7 km/h (2 Bft) 97,83 %
22.05.2022 19:04 24,6 C 26,7 C 20,0 C 50 % 1011,3 hPa 0,0 l/m 2 min 0 min 255 W/m 6,4 km/h (2 Bft) 97,87 %
22.05.2022 19:02 24,6 C 27,2 C 20,0 C 49 % 1011,3 hPa 0,0 l/m 2 min 0 min 262 W/m 3,2 km/h (1 Bft) 97,87 %
22.05.2022 19:00 24,6 C 26,7 C 20,0 C 48 % 1011,4 hPa 0,0 l/m 2 min 0 min 288 W/m 6,4 km/h (2 Bft) 95,74 %
22.05.2022 18:58 24,7 C 26,1 C 20,0 C 48 % 1011,4 hPa 0,0 l/m 2 min 0 min 272 W/m 9,7 km/h (2 Bft) 97,87 %
22.05.2022 18:56 24,7 C 26,7 C 20,0 C 47 % 1011,4 hPa 0,0 l/m 2 min 0 min 206 W/m 3,2 km/h (1 Bft) 97,87 %
22.05.2022 18:54 24,8 C 27,2 C 20,0 C 49 % 1011,4 hPa 0,0 l/m 2 min 0 min 195 W/m 6,4 km/h (2 Bft) 97,83 %
22.05.2022 18:52 24,8 C 28,3 C 20,6 C 49 % 1011,5 hPa 0,0 l/m 2 min 0 min 258 W/m 6,4 km/h (2 Bft) 97,87 %
22.05.2022 18:50 24,8 C 28,3 C 20,6 C 48 % 1011,5 hPa 0,0 l/m 2 min 0 min 296 W/m 3,2 km/h (1 Bft) 97,87 %
22.05.2022 18:48 24,8 C 28,3 C 20,6 C 49 % 1011,5 hPa 0,0 l/m 2 min 0 min 323 W/m 3,2 km/h (1 Bft) 97,87 %
22.05.2022 18:46 24,8 C 28,3 C 20,6 C 50 % 1011,6 hPa 0,0 l/m 2 min 0 min 265 W/m 6,4 km/h (2 Bft) 97,87 %
22.05.2022 18:44 24,8 C 28,3 C 20,6 C 49 % 1011,6 hPa 0,0 l/m 2 min 0 min 254 W/m 6,4 km/h (2 Bft) 95,74 %
22.05.2022 18:42 24,9 C 28,3 C 20,6 C 48 % 1011,6 hPa 0,0 l/m 2 min 0 min 279 W/m 6,4 km/h (2 Bft) 97,83 %
22.05.2022 18:40 24,9 C 28,3 C 20,6 C 49 % 1011,7 hPa 0,0 l/m 2 min 0 min 304 W/m 6,4 km/h (2 Bft) 95,74 %
22.05.2022 18:38 24,9 C 27,8 C 20,0 C 48 % 1011,7 hPa 0,0 l/m 2 min 0 min 350 W/m 3,2 km/h (1 Bft) 95,74 %
22.05.2022 18:36 24,9 C 27,8 C 20,0 C 48 % 1011,7 hPa 0,0 l/m 2 min 0 min 318 W/m 6,4 km/h (2 Bft) 95,74 %
22.05.2022 18:34 25,0 C 27,8 C 20,6 C 47 % 1011,8 hPa 0,0 l/m 2 min 0 min 276 W/m 6,4 km/h (2 Bft) 95,74 %
22.05.2022 18:32 25,1 C 27,8 C 20,6 C 47 % 1011,8 hPa 0,0 l/m 2 min 0 min 324 W/m 6,4 km/h (2 Bft) 95,74 %
22.05.2022 18:30 25,1 C 27,8 C 20,6 C 47 % 1011,8 hPa 0,0 l/m 2 min 0 min 300 W/m 3,2 km/h (1 Bft) 93,48 %
22.05.2022 18:28 25,2 C 27,8 C 20,6 C 47 % 1011,8 hPa 0,0 l/m 2 min 0 min 278 W/m 3,2 km/h (1 Bft) 95,74 %
22.05.2022 18:26 25,2 C 28,3 C 20,6 C 47 % 1011,8 hPa 0,0 l/m 2 min 0 min 309 W/m 6,4 km/h (2 Bft) 97,87 %
22.05.2022 18:24 25,2 C 28,3 C 20,6 C 47 % 1011,9 hPa 0,0 l/m 2 min 0 min 326 W/m 6,4 km/h (2 Bft) 95,74 %
22.05.2022 18:22 25,3 C 28,9 C 20,6 C 46 % 1012,0 hPa 0,0 l/m 2 min 0 min 399 W/m 6,4 km/h (2 Bft) 95,74 %
22.05.2022 18:20 25,4 C 29,4 C 21,1 C 46 % 1012,0 hPa 0,0 l/m 2 min 0 min 417 W/m 12,9 km/h (3 Bft) 95,74 %
22.05.2022 18:18 25,4 C 30,0 C 21,1 C 49 % 1012,0 hPa 0,0 l/m 2 min 0 min 429 W/m 6,4 km/h (2 Bft) 95,65 %
22.05.2022 18:16 25,4 C 29,4 C 21,1 C 49 % 1012,0 hPa 0,0 l/m 2 min 0 min 424 W/m 3,2 km/h (1 Bft) 95,74 %
22.05.2022 18:14 25,3 C 28,9 C 21,1 C 51 % 1012,0 hPa 0,0 l/m 2 min 0 min 398 W/m 9,7 km/h (2 Bft) 93,62 %
22.05.2022 18:12 25,3 C 28,9 C 20,6 C 51 % 1012,1 hPa 0,0 l/m 2 min 0 min 331 W/m 6,4 km/h (2 Bft) 93,62 %
22.05.2022 18:10 25,2 C 28,9 C 20,6 C 51 % 1012,1 hPa 0,0 l/m 2 min 0 min 273 W/m 6,4 km/h (2 Bft) 95,74 %
22.05.2022 18:08 25,1 C 30,0 C 21,1 C 52 % 1012,1 hPa 0,0 l/m 4 min 0 min 402 W/m 6,4 km/h (2 Bft) 94,62 %
22.05.2022 18:04 24,9 C 30,0 C 20,6 C 51 % 1012,2 hPa 0,0 l/m 2 min 0 min 486 W/m 6,4 km/h (2 Bft) 95,74 %
22.05.2022 18:02 24,9 C 29,4 C 20,6 C 50 % 1012,2 hPa 0,0 l/m 2 min 0 min 488 W/m 6,4 km/h (2 Bft) 93,62 %
22.05.2022 18:00 25,0 C 30,0 C 20,6 C 49 % 1012,3 hPa 0,0 l/m 2 min 0 min 486 W/m 9,7 km/h (2 Bft) 95,74 %
22.05.2022 17:58 25,1 C 29,4 C 20,6 C 49 % 1012,3 hPa 0,0 l/m 2 min 0 min 510 W/m 6,4 km/h (2 Bft) 95,74 %
22.05.2022 17:56 25,1 C 29,4 C 20,6 C 50 % 1012,4 hPa 0,0 l/m 2 min 0 min 504 W/m 9,7 km/h (2 Bft) 95,74 %
22.05.2022 17:54 25,1 C 29,4 C 20,6 C 50 % 1012,4 hPa 0,0 l/m 2 min 0 min 483 W/m 6,4 km/h (2 Bft) 97,83 %
22.05.2022 17:52 25,1 C 29,4 C 20,6 C 50 % 1012,5 hPa 0,0 l/m 2 min 0 min 494 W/m 6,4 km/h (2 Bft) 97,87 %
22.05.2022 17:50 25,1 C 29,4 C 20,6 C 51 % 1012,5 hPa 0,0 l/m 2 min 0 min 492 W/m 3,2 km/h (1 Bft) 97,87 %
22.05.2022 17:48 25,1 C 29,4 C 20,6 C 50 % 1012,6 hPa 0,0 l/m 2 min 0 min 411 W/m 3,2 km/h (1 Bft) 97,87 %
22.05.2022 17:46 25,1 C 29,4 C 20,6 C 50 % 1012,5 hPa 0,0 l/m 2 min 0 min 403 W/m 6,4 km/h (2 Bft) 95,74 %
22.05.2022 17:44 25,1 C 30,0 C 21,1 C 52 % 1012,6 hPa 0,0 l/m 2 min 0 min 465 W/m 6,4 km/h (2 Bft) 97,87 %
22.05.2022 17:42 25,0 C 30,0 C 21,1 C 51 % 1012,6 hPa 0,0 l/m 2 min 0 min 496 W/m 9,7 km/h (2 Bft) 100,00 %
22.05.2022 17:40 24,9 C 29,4 C 20,6 C 50 % 1012,6 hPa 0,0 l/m 2 min 0 min 372 W/m 6,4 km/h (2 Bft) 100,00 %
22.05.2022 17:38 25,0 C 28,9 C 20,0 C 50 % 1012,6 hPa 0,0 l/m 2 min 0 min 597 W/m 12,9 km/h (3 Bft) 97,87 %
22.05.2022 17:36 25,1 C 29,4 C 20,6 C 50 % 1012,7 hPa 0,0 l/m 2 min 0 min 605 W/m 12,9 km/h (3 Bft) 100,00 %
22.05.2022 17:34 25,1 C 28,3 C 20,0 C 50 % 1012,7 hPa 0,0 l/m 2 min 0 min 481 W/m 6,4 km/h (2 Bft) 100,00 %
22.05.2022 17:32 25,1 C 27,8 C 20,0 C 49 % 1012,8 hPa 0,0 l/m 2 min 0 min 464 W/m 3,2 km/h (1 Bft) 100,00 %
22.05.2022 17:30 25,1 C 27,8 C 20,0 C 50 % 1012,8 hPa 0,0 l/m 2 min 0 min 390 W/m 6,4 km/h (2 Bft) 100,00 %
22.05.2022 17:28 25,2 C 27,8 C 20,6 C 50 % 1012,8 hPa 0,0 l/m 2 min 0 min 432 W/m 6,4 km/h (2 Bft) 97,87 %
22.05.2022 17:26 25,2 C 27,8 C 20,0 C 49 % 1012,9 hPa 0,0 l/m 2 min 0 min 497 W/m 6,4 km/h (2 Bft) 100,00 %
22.05.2022 17:24 25,2 C 28,9 C 20,6 C 50 % 1012,9 hPa 0,0 l/m 2 min 0 min 616 W/m 12,9 km/h (3 Bft) 97,87 %
22.05.2022 17:22 25,2 C 30,0 C 21,1 C 49 % 1012,9 hPa 0,0 l/m 2 min 0 min 586 W/m 12,9 km/h (3 Bft) 100,00 %
22.05.2022 17:20 25,2 C 30,0 C 20,6 C 50 % 1012,9 hPa 0,0 l/m 2 min 0 min 634 W/m 12,9 km/h (3 Bft) 100,00 %
22.05.2022 17:18 25,2 C 30,0 C 20,6 C 50 % 1012,9 hPa 0,0 l/m 2 min 0 min 627 W/m 16,1 km/h (3 Bft) 100,00 %
22.05.2022 17:16 25,2 C 30,0 C 20,6 C 49 % 1012,9 hPa 0,0 l/m 2 min 0 min 609 W/m 6,4 km/h (2 Bft) 97,87 %
22.05.2022 17:14 25,2 C 29,4 C 20,6 C 49 % 1012,9 hPa 0,0 l/m 2 min 0 min 604 W/m 6,4 km/h (2 Bft) 100,00 %
22.05.2022 17:12 25,2 C 30,0 C 20,6 C 49 % 1013,0 hPa 0,0 l/m 2 min 0 min 607 W/m 6,4 km/h (2 Bft) 100,00 %
22.05.2022 17:10 25,3 C 30,6 C 20,6 C 48 % 1013,0 hPa 0,0 l/m 2 min 0 min 606 W/m 6,4 km/h (2 Bft) 100,00 %
22.05.2022 17:08 25,3 C 31,1 C 21,1 C 51 % 1013,0 hPa 0,0 l/m 2 min 0 min 618 W/m 3,2 km/h (1 Bft) 100,00 %
22.05.2022 17:06 25,2 C 31,1 C 21,1 C 51 % 1013,0 hPa 0,0 l/m 2 min 0 min 627 W/m 6,4 km/h (2 Bft) 100,00 %
22.05.2022 17:04 25,2 C 30,6 C 20,6 C 52 % 1013,0 hPa 0,0 l/m 2 min 0 min 616 W/m 6,4 km/h (2 Bft) 100,00 %
22.05.2022 17:02 25,2 C 30,6 C 20,6 C 50 % 1013,0 hPa 0,0 l/m 2 min 0 min 606 W/m 6,4 km/h (2 Bft) 97,87 %
22.05.2022 17:00 25,2 C 31,1 C 21,1 C 51 % 1013,0 hPa 0,0 l/m 2 min 0 min 626 W/m 9,7 km/h (2 Bft) 100,00 %
22.05.2022 16:58 25,2 C 31,1 C 21,1 C 51 % 1013,1 hPa 0,0 l/m 2 min 0 min 641 W/m 12,9 km/h (3 Bft) 100,00 %
22.05.2022 16:56 25,2 C 31,1 C 20,6 C 51 % 1013,1 hPa 0,0 l/m 2 min 0 min 649 W/m 6,4 km/h (2 Bft) 100,00 %
22.05.2022 16:54 25,2 C 31,7 C 21,1 C 51 % 1013,1 hPa 0,0 l/m 2 min 0 min 662 W/m 6,4 km/h (2 Bft) 100,00 %
22.05.2022 16:52 25,1 C 31,7 C 21,1 C 52 % 1013,1 hPa 0,0 l/m 2 min 0 min 644 W/m 6,4 km/h (2 Bft) 100,00 %
22.05.2022 16:50 25,0 C 31,1 C 21,1 C 52 % 1013,1 hPa 0,0 l/m 2 min 0 min 656 W/m 9,7 km/h (2 Bft) 100,00 %
22.05.2022 16:48 25,0 C 30,6 C 20,6 C 52 % 1013,0 hPa 0,0 l/m 2 min 0 min 660 W/m 6,4 km/h (2 Bft) 100,00 %
22.05.2022 16:46 24,9 C 30,0 C 20,6 C 51 % 1013,0 hPa 0,0 l/m 2 min 0 min 679 W/m 6,4 km/h (2 Bft) 100,00 %
22.05.2022 16:44 24,9 C 30,0 C 20,6 C 50 % 1013,1 hPa 0,0 l/m 2 min 0 min 679 W/m 6,4 km/h (2 Bft) 100,00 %
22.05.2022 16:42 24,9 C 30,6 C 20,0 C 50 % 1013,1 hPa 0,0 l/m 2 min 0 min 659 W/m 12,9 km/h (3 Bft) 100,00 %
22.05.2022 16:40 24,9 C 30,6 C 20,6 C 50 % 1013,1 hPa 0,0 l/m 2 min 0 min 682 W/m 6,4 km/h (2 Bft) 100,00 %
22.05.2022 16:38 25,0 C 30,6 C 20,6 C 51 % 1013,1 hPa 0,0 l/m 2 min 0 min 653 W/m 6,4 km/h (2 Bft) 100,00 %
22.05.2022 16:36 25,1 C 30,6 C 21,1 C 51 % 1013,2 hPa 0,0 l/m 2 min 0 min 675 W/m 9,7 km/h (2 Bft) 100,00 %
22.05.2022 16:34 25,1 C 31,1 C 21,1 C 52 % 1013,2 hPa 0,0 l/m 2 min 0 min 674 W/m 12,9 km/h (3 Bft) 100,00 %
22.05.2022 16:32 25,0 C 31,1 C 21,1 C 52 % 1013,1 hPa 0,0 l/m 2 min 0 min 702 W/m 9,7 km/h (2 Bft) 100,00 %
22.05.2022 16:30 24,9 C 30,6 C 20,6 C 52 % 1013,2 hPa 0,0 l/m 2 min 0 min 700 W/m 9,7 km/h (2 Bft) 100,00 %
22.05.2022 16:28 24,9 C 30,6 C 20,6 C 51 % 1013,1 hPa 0,0 l/m 2 min 0 min 713 W/m 12,9 km/h (3 Bft) 100,00 %
22.05.2022 16:26 24,8 C 29,4 C 20,6 C 50 % 1013,1 hPa 0,0 l/m 2 min 0 min 735 W/m 6,4 km/h (2 Bft) 100,00 %
22.05.2022 16:24 24,9 C 30,0 C 20,6 C 51 % 1013,2 hPa 0,0 l/m 2 min 0 min 743 W/m 12,9 km/h (3 Bft) 97,87 %
22.05.2022 16:22 24,9 C 30,6 C 20,6 C 50 % 1013,1 hPa 0,0 l/m 2 min 0 min 742 W/m 9,7 km/h (2 Bft) 97,87 %
22.05.2022 16:20 24,9 C 30,6 C 20,6 C 51 % 1013,1 hPa 0,0 l/m 2 min 0 min 746 W/m 9,7 km/h (2 Bft) 97,83 %
22.05.2022 16:18 24,8 C 30,0 C 20,6 C 52 % 1013,2 hPa 0,0 l/m 2 min 0 min 753 W/m 12,9 km/h (3 Bft) 95,74 %
22.05.2022 16:16 24,7 C 28,9 C 20,0 C 51 % 1013,2 hPa 0,0 l/m 2 min 0 min 750 W/m 6,4 km/h (2 Bft) 97,87 %
22.05.2022 16:14 24,7 C 29,4 C 20,0 C 52 % 1013,2 hPa 0,0 l/m 2 min 0 min 752 W/m 16,1 km/h (3 Bft) 95,74 %
22.05.2022 16:12 24,7 C 28,9 C 20,0 C 50 % 1013,2 hPa 0,0 l/m 2 min 0 min 761 W/m 9,7 km/h (2 Bft) 97,87 %
22.05.2022 16:10 24,7 C 29,4 C 20,0 C 51 % 1013,2 hPa 0,0 l/m 2 min 0 min 769 W/m 6,4 km/h (2 Bft) 93,62 %
22.05.2022 16:08 24,7 C 29,4 C 20,0 C 51 % 1013,3 hPa 0,0 l/m 2 min 0 min 764 W/m 9,7 km/h (2 Bft) 97,14 %
22.05.2022 16:06 24,7 C 28,9 C 20,0 C 51 % 1013,3 hPa 0,0 l/m 2 min 0 min 757 W/m 12,9 km/h (3 Bft) 94,83 %
22.05.2022 16:04 24,8 C 30,0 C 20,0 C 51 % 1013,3 hPa 0,0 l/m 2 min 0 min 764 W/m 16,1 km/h (3 Bft) 95,74 %
22.05.2022 16:02 24,7 C 30,0 C 20,0 C 52 % 1013,4 hPa 0,0 l/m 2 min 0 min 774 W/m 6,4 km/h (2 Bft) 93,62 %
22.05.2022 16:00 24,7 C 29,4 C 20,0 C 52 % 1013,3 hPa 0,0 l/m 2 min 0 min 785 W/m 6,4 km/h (2 Bft) 91,49 %
22.05.2022 15:58 24,6 C 28,3 C 19,4 C 51 % 1013,3 hPa 0,0 l/m 2 min 0 min 793 W/m 9,7 km/h (2 Bft) 93,62 %
22.05.2022 15:56 24,6 C 28,9 C 19,4 C 51 % 1013,4 hPa 0,0 l/m 2 min 0 min 797 W/m 6,4 km/h (2 Bft) 89,13 %
22.05.2022 15:54 24,6 C 28,9 C 19,4 C 51 % 1013,4 hPa 0,0 l/m 2 min 0 min 792 W/m 9,7 km/h (2 Bft) 93,62 %
22.05.2022 15:52 24,7 C 28,9 C 20,0 C 52 % 1013,5 hPa 0,0 l/m 2 min 0 min 793 W/m 9,7 km/h (2 Bft) 95,74 %
22.05.2022 15:50 24,6 C 28,3 C 19,4 C 51 % 1013,5 hPa 0,0 l/m 2 min 0 min 805 W/m 9,7 km/h (2 Bft) 95,74 %
22.05.2022 15:48 24,6 C 27,8 C 20,0 C 51 % 1013,6 hPa 0,0 l/m 2 min 0 min 815 W/m 9,7 km/h (2 Bft) 95,74 %
22.05.2022 15:46 24,6 C 27,2 C 19,4 C 50 % 1013,6 hPa 0,0 l/m 2 min 0 min 817 W/m 6,4 km/h (2 Bft) 95,74 %
22.05.2022 15:44 24,7 C 27,2 C 19,4 C 49 % 1013,7 hPa 0,0 l/m 2 min 0 min 810 W/m 12,9 km/h (3 Bft) 93,48 %
22.05.2022 15:42 24,7 C 27,8 C 19,4 C 50 % 1013,7 hPa 0,0 l/m 2 min 0 min 816 W/m 9,7 km/h (2 Bft) 95,74 %
22.05.2022 15:40 24,7 C 27,8 C 19,4 C 51 % 1013,7 hPa 0,0 l/m 2 min 0 min 823 W/m 9,7 km/h (2 Bft) 95,74 %
22.05.2022 15:38 24,7 C 27,8 C 19,4 C 50 % 1013,7 hPa 0,0 l/m 2 min 0 min 825 W/m 3,2 km/h (1 Bft) 93,62 %
22.05.2022 15:36 24,7 C 27,8 C 19,4 C 50 % 1013,7 hPa 0,0 l/m 2 min 0 min 821 W/m 3,2 km/h (1 Bft) 93,62 %
22.05.2022 15:34 24,7 C 27,8 C 20,0 C 51 % 1013,8 hPa 0,0 l/m 2 min 0 min 829 W/m 6,4 km/h (2 Bft) 93,62 %
22.05.2022 15:32 24,7 C 28,9 C 20,0 C 53 % 1013,9 hPa 0,0 l/m 2 min 0 min 829 W/m 6,4 km/h (2 Bft) 95,65 %
22.05.2022 15:30 24,6 C 28,3 C 20,0 C 53 % 1013,9 hPa 0,0 l/m 2 min 0 min 831 W/m 6,4 km/h (2 Bft) 95,74 %
22.05.2022 15:28 24,5 C 27,8 C 19,4 C 53 % 1014,0 hPa 0,0 l/m 2 min 0 min 832 W/m 6,4 km/h (2 Bft) 93,62 %
22.05.2022 15:26 24,4 C 27,2 C 20,0 C 53 % 1014,0 hPa 0,0 l/m 2 min 0 min 841 W/m 6,4 km/h (2 Bft) 97,87 %
22.05.2022 15:24 24,3 C 27,2 C 19,4 C 52 % 1014,0 hPa 0,0 l/m 2 min 0 min 840 W/m 12,9 km/h (3 Bft) 97,87 %
22.05.2022 15:22 24,3 C 27,2 C 19,4 C 52 % 1014,0 hPa 0,0 l/m 2 min 0 min 851 W/m 9,7 km/h (2 Bft) 95,65 %
22.05.2022 15:20 24,3 C 26,7 C 19,4 C 52 % 1014,0 hPa 0,0 l/m 2 min 0 min 845 W/m 6,4 km/h (2 Bft) 97,87 %
22.05.2022 15:18 24,2 C 27,2 C 19,4 C 52 % 1014,1 hPa 0,0 l/m 2 min 0 min 840 W/m 6,4 km/h (2 Bft) 97,87 %
22.05.2022 15:16 24,3 C 27,2 C 19,4 C 52 % 1014,2 hPa 0,0 l/m 2 min 0 min 857 W/m 12,9 km/h (3 Bft) 97,87 %
22.05.2022 15:14 24,3 C 26,7 C 19,4 C 52 % 1014,2 hPa 0,0 l/m 2 min 0 min 854 W/m 9,7 km/h (2 Bft) 100,00 %
22.05.2022 15:12 24,3 C 26,1 C 19,4 C 51 % 1014,3 hPa 0,0 l/m 2 min 0 min 823 W/m 6,4 km/h (2 Bft) 97,87 %
22.05.2022 15:10 24,3 C 27,2 C 20,0 C 52 % 1014,3 hPa 0,0 l/m 2 min 0 min 823 W/m 12,9 km/h (3 Bft) 97,87 %
22.05.2022 15:08 24,3 C 27,2 C 20,0 C 53 % 1014,3 hPa 0,0 l/m 2 min 0 min 866 W/m 9,7 km/h (2 Bft) 97,83 %
22.05.2022 15:06 24,2 C 27,2 C 19,4 C 53 % 1014,3 hPa 0,0 l/m 2 min 0 min 885 W/m 6,4 km/h (2 Bft) 100,00 %
22.05.2022 15:04 24,2 C 27,2 C 19,4 C 53 % 1014,3 hPa 0,0 l/m 2 min 0 min 880 W/m 6,4 km/h (2 Bft) 100,00 %
22.05.2022 15:02 24,2 C 26,7 C 19,4 C 53 % 1014,4 hPa 0,0 l/m 2 min 0 min 877 W/m 12,9 km/h (3 Bft) 97,87 %
22.05.2022 15:00 24,1 C 26,1 C 18,9 C 52 % 1014,3 hPa 0,0 l/m 2 min 0 min 884 W/m 6,4 km/h (2 Bft) 97,87 %
22.05.2022 14:58 24,3 C 26,7 C 18,9 C 52 % 1014,4 hPa 0,0 l/m 2 min 0 min 881 W/m 12,9 km/h (3 Bft) 100,00 %
22.05.2022 14:56 24,4 C 27,2 C 18,9 C 51 % 1014,4 hPa 0,0 l/m 2 min 0 min 875 W/m 12,9 km/h (3 Bft) 100,00 %
22.05.2022 14:54 24,6 C 28,3 C 19,4 C 54 % 1014,4 hPa 0,0 l/m 2 min 0 min 871 W/m 9,7 km/h (2 Bft) 100,00 %
22.05.2022 14:52 24,4 C 27,8 C 19,4 C 53 % 1014,4 hPa 0,0 l/m 2 min 0 min 894 W/m 6,4 km/h (2 Bft) 95,74 %
22.05.2022 14:50 24,3 C 28,3 C 19,4 C 53 % 1014,5 hPa 0,0 l/m 2 min 0 min 907 W/m 12,9 km/h (3 Bft) 100,00 %
22.05.2022 14:48 24,1 C 27,8 C 19,4 C 54 % 1014,5 hPa 0,0 l/m 2 min 0 min 886 W/m 6,4 km/h (2 Bft) 100,00 %
22.05.2022 14:46 24,0 C 27,2 C 19,4 C 54 % 1014,6 hPa 0,0 l/m 2 min 0 min 884 W/m 6,4 km/h (2 Bft) 100,00 %
22.05.2022 14:44 23,9 C 27,8 C 19,4 C 54 % 1014,6 hPa 0,0 l/m 2 min 0 min 909 W/m 9,7 km/h (2 Bft) 100,00 %
22.05.2022 14:42 23,8 C 27,2 C 19,4 C 54 % 1014,7 hPa 0,0 l/m 2 min 0 min 920 W/m 9,7 km/h (2 Bft) 100,00 %
22.05.2022 14:40 23,8 C 26,1 C 19,4 C 54 % 1014,7 hPa 0,0 l/m 2 min 0 min 925 W/m 16,1 km/h (3 Bft) 100,00 %
22.05.2022 14:38 23,8 C 26,7 C 19,4 C 54 % 1014,7 hPa 0,0 l/m 2 min 0 min 942 W/m 9,7 km/h (2 Bft) 100,00 %
22.05.2022 14:36 23,8 C 27,8 C 19,4 C 54 % 1014,7 hPa 0,0 l/m 2 min 0 min 946 W/m 12,9 km/h (3 Bft) 100,00 %
22.05.2022 14:34 23,7 C 27,8 C 19,4 C 55 % 1014,7 hPa 0,0 l/m 2 min 0 min 943 W/m 3,2 km/h (1 Bft) 100,00 %
22.05.2022 14:32 23,7 C 27,8 C 18,9 C 54 % 1014,7 hPa 0,0 l/m 2 min 0 min 945 W/m 6,4 km/h (2 Bft) 100,00 %
22.05.2022 14:30 23,6 C 27,8 C 18,9 C 56 % 1014,7 hPa 0,0 l/m 2 min 0 min 944 W/m 9,7 km/h (2 Bft) 100,00 %
22.05.2022 14:28 23,6 C 27,2 C 18,9 C 55 % 1014,7 hPa 0,0 l/m 2 min 0 min 953 W/m 3,2 km/h (1 Bft) 97,87 %
22.05.2022 14:26 23,6 C 26,1 C 18,9 C 56 % 1014,8 hPa 0,0 l/m 2 min 0 min 949 W/m 19,3 km/h (3 Bft) 95,74 %
22.05.2022 14:24 23,7 C 26,1 C 18,9 C 55 % 1014,8 hPa 0,0 l/m 2 min 0 min 666 W/m 12,9 km/h (3 Bft) 95,74 %
22.05.2022 14:22 23,7 C 26,1 C 19,4 C 55 % 1014,9 hPa 0,0 l/m 2 min 0 min 614 W/m 9,7 km/h (2 Bft) 97,87 %
22.05.2022 14:20 23,7 C 27,2 C 18,9 C 55 % 1014,9 hPa 0,0 l/m 2 min 0 min 922 W/m 9,7 km/h (2 Bft) 97,83 %
22.05.2022 14:18 23,7 C 26,7 C 18,9 C 55 % 1014,9 hPa 0,0 l/m 2 min 0 min 913 W/m 12,9 km/h (3 Bft) 97,87 %
22.05.2022 14:16 23,7 C 26,7 C 19,4 C 55 % 1015,0 hPa 0,0 l/m 2 min 0 min 927 W/m 6,4 km/h (2 Bft) 97,87 %
22.05.2022 14:14 23,7 C 26,7 C 18,9 C 54 % 1015,0 hPa 0,0 l/m 2 min 0 min 946 W/m 6,4 km/h (2 Bft) 97,87 %
22.05.2022 14:12 23,7 C 27,8 C 18,9 C 55 % 1015,0 hPa 0,0 l/m 2 min 0 min 937 W/m 6,4 km/h (2 Bft) 97,87 %
22.05.2022 14:10 23,6 C 27,8 C 19,4 C 56 % 1015,0 hPa 0,0 l/m 2 min 0 min 933 W/m 9,7 km/h (2 Bft) 97,92 %
22.05.2022 14:08 23,6 C 27,8 C 18,9 C 57 % 1015,0 hPa 0,0 l/m 2 min 0 min 934 W/m 6,4 km/h (2 Bft) 97,22 %
22.05.2022 14:06 23,6 C 27,2 C 18,9 C 56 % 1015,0 hPa 0,0 l/m 2 min 0 min 932 W/m 6,4 km/h (2 Bft) 96,55 %
22.05.2022 14:04 23,5 C 27,8 C 19,4 C 58 % 1015,0 hPa 0,0 l/m 2 min 0 min 916 W/m 9,7 km/h (2 Bft) 97,87 %
22.05.2022 14:02 23,4 C 27,8 C 20,0 C 57 % 1015,0 hPa 0,0 l/m 2 min 0 min 915 W/m 9,7 km/h (2 Bft) 97,87 %
22.05.2022 14:00 23,4 C 27,8 C 20,0 C 57 % 1015,0 hPa 0,0 l/m 2 min 0 min 932 W/m 9,7 km/h (2 Bft) 97,87 %
22.05.2022 13:58 23,4 C 27,2 C 20,6 C 57 % 1015,0 hPa 0,0 l/m 2 min 0 min 952 W/m 12,9 km/h (3 Bft) 97,83 %
22.05.2022 13:56 23,4 C 26,7 C 21,7 C 56 % 1015,1 hPa 0,0 l/m 2 min 0 min 965 W/m 9,7 km/h (2 Bft) 97,87 %
22.05.2022 13:54 23,4 C 26,7 C 22,2 C 56 % 1015,1 hPa 0,0 l/m 2 min 0 min 947 W/m 9,7 km/h (2 Bft) 100,00 %
22.05.2022 13:52 23,3 C 26,1 C 23,9 C 55 % 1015,2 hPa 0,0 l/m 2 min 0 min 924 W/m 9,7 km/h (2 Bft) 100,00 %
22.05.2022 13:50 23,3 C 25,6 C 24,4 C 56 % 1015,2 hPa 0,0 l/m 2 min 0 min 924 W/m 12,9 km/h (3 Bft) 100,00 %
22.05.2022 13:48 23,3 C 26,7 C 25,6 C 58 % 1015,2 hPa 0,0 l/m 2 min 0 min 924 W/m 12,9 km/h (3 Bft) 100,00 %
22.05.2022 13:46 23,1 C 26,1 C 26,7 C 57 % 1015,3 hPa 0,0 l/m 2 min 0 min 935 W/m 6,4 km/h (2 Bft) 97,83 %
22.05.2022 13:44 23,1 C 25,6 C 26,7 C 57 % 1015,3 hPa 0,0 l/m 2 min 0 min 938 W/m 3,2 km/h (1 Bft) 100,00 %
22.05.2022 13:42 23,1 C 26,1 C 26,1 C 57 % 1015,3 hPa 0,0 l/m 2 min 0 min 927 W/m 12,9 km/h (3 Bft) 100,00 %
22.05.2022 13:40 23,1 C 26,1 C 25,6 C 56 % 1015,3 hPa 0,0 l/m 2 min 0 min 939 W/m 6,4 km/h (2 Bft) 100,00 %
22.05.2022 13:38 23,1 C 26,1 C 26,1 C 58 % 1015,3 hPa 0,0 l/m 2 min 0 min 953 W/m 12,9 km/h (3 Bft) 100,00 %
22.05.2022 13:36 23,0 C 26,1 C 26,1 C 57 % 1015,4 hPa 0,0 l/m 2 min 0 min 937 W/m 9,7 km/h (2 Bft) 96,61 %
22.05.2022 13:34 22,9 C 25,6 C 26,1 C 59 % 1015,3 hPa 0,0 l/m 2 min 0 min 939 W/m 9,7 km/h (2 Bft) 97,83 %
22.05.2022 13:32 22,9 C 26,1 C 26,1 C 58 % 1015,3 hPa 0,0 l/m 2 min 0 min 934 W/m 12,9 km/h (3 Bft) 97,87 %
22.05.2022 13:30 22,8 C 26,1 C 25,6 C 59 % 1015,4 hPa 0,0 l/m 2 min 0 min 936 W/m 16,1 km/h (3 Bft) 97,87 %
22.05.2022 13:28 22,7 C 25,6 C 24,4 C 58 % 1015,4 hPa 0,0 l/m 2 min 0 min 939 W/m 6,4 km/h (2 Bft) 98,11 %
22.05.2022 13:26 22,7 C 25,0 C 24,4 C 58 % 1015,5 hPa 0,0 l/m 2 min 0 min 949 W/m 9,7 km/h (2 Bft) 97,56 %
22.05.2022 13:24 22,6 C 25,6 C 22,8 C 60 % 1015,5 hPa 0,0 l/m 2 min 0 min 970 W/m 9,7 km/h (2 Bft) 97,87 %
22.05.2022 13:22 22,4 C 25,0 C 21,1 C 59 % 1015,5 hPa 0,0 l/m 2 min 0 min 985 W/m 9,7 km/h (2 Bft) 97,83 %
22.05.2022 13:20 22,3 C 25,0 C 20,6 C 59 % 1015,6 hPa 0,0 l/m 2 min 0 min 990 W/m 6,4 km/h (2 Bft) 95,74 %
22.05.2022 13:18 22,3 C 24,4 C 19,4 C 59 % 1015,6 hPa 0,0 l/m 2 min 0 min 988 W/m 12,9 km/h (3 Bft) 97,87 %
22.05.2022 13:16 22,2 C 23,9 C 18,9 C 59 % 1015,6 hPa 0,0 l/m 2 min 0 min 1000 W/m 6,4 km/h (2 Bft) 97,87 %
22.05.2022 13:14 22,3 C 23,3 C 18,9 C 59 % 1015,7 hPa 0,0 l/m 0 min 0 min 384 W/m 9,7 km/h (2 Bft) 97,87 %
22.05.2022 13:12 22,4 C 22,8 C 20,0 C 59 % 1015,7 hPa 0,0 l/m 0 min 0 min 255 W/m 3,2 km/h (1 Bft) 97,87 %
22.05.2022 13:10 22,4 C 22,8 C 21,1 C 58 % 1015,7 hPa 0,0 l/m 0 min 0 min 254 W/m 9,7 km/h (2 Bft) 97,83 %
22.05.2022 13:08 22,6 C 23,9 C 22,2 C 58 % 1015,7 hPa 0,0 l/m 2 min 0 min 736 W/m 12,9 km/h (3 Bft) 97,22 %
22.05.2022 13:06 22,5 C 23,9 C 22,2 C 58 % 1015,8 hPa 0,0 l/m 2 min 0 min 807 W/m 6,4 km/h (2 Bft) 98,28 %
22.05.2022 13:04 22,5 C 23,9 C 23,3 C 58 % 1015,8 hPa 0,0 l/m 2 min 0 min 703 W/m 9,7 km/h (2 Bft) 95,74 %
22.05.2022 13:02 22,5 C 23,9 C 24,4 C 58 % 1015,9 hPa 0,0 l/m 2 min 0 min 995 W/m 12,9 km/h (3 Bft) 97,87 %
22.05.2022 13:00 22,5 C 23,9 C 23,9 C 58 % 1016,0 hPa 0,0 l/m 2 min 0 min 930 W/m 16,1 km/h (3 Bft) 97,87 %
22.05.2022 12:58 22,4 C 23,9 C 23,3 C 58 % 1016,0 hPa 0,0 l/m 2 min 0 min 783 W/m 9,7 km/h (2 Bft) 97,83 %
22.05.2022 12:56 22,6 C 22,8 C 22,2 C 57 % 1016,1 hPa 0,0 l/m 0 min 0 min 353 W/m 12,9 km/h (3 Bft) 97,87 %
22.05.2022 12:54 22,6 C 23,3 C 22,8 C 57 % 1016,1 hPa 0,0 l/m 0 min 0 min 404 W/m 12,9 km/h (3 Bft) 100,00 %
22.05.2022 12:52 22,7 C 24,4 C 24,4 C 57 % 1016,1 hPa 0,0 l/m 2 min 0 min 888 W/m 6,4 km/h (2 Bft) 100,00 %
22.05.2022 12:50 22,7 C 24,4 C 25,0 C 56 % 1016,1 hPa 0,0 l/m 2 min 0 min 908 W/m 12,9 km/h (3 Bft) 95,74 %
22.05.2022 12:48 22,8 C 25,6 C 25,0 C 58 % 1016,1 hPa 0,0 l/m 2 min 0 min 976 W/m 12,9 km/h (3 Bft) 97,87 %
22.05.2022 12:46 22,7 C 25,6 C 24,4 C 58 % 1016,1 hPa 0,0 l/m 2 min 0 min 979 W/m 6,4 km/h (2 Bft) 97,83 %
22.05.2022 12:44 22,6 C 25,0 C 23,9 C 58 % 1016,2 hPa 0,0 l/m 2 min 0 min 854 W/m 6,4 km/h (2 Bft) 95,74 %
22.05.2022 12:42 22,6 C 25,0 C 23,9 C 58 % 1016,2 hPa 0,0 l/m 2 min 0 min 782 W/m 6,4 km/h (2 Bft) 97,87 %
22.05.2022 12:40 22,6 C 25,0 C 23,3 C 58 % 1016,2 hPa 0,0 l/m 2 min 0 min 777 W/m 12,9 km/h (3 Bft) 100,00 %
22.05.2022 12:38 22,6 C 25,0 C 24,4 C 59 % 1016,2 hPa 0,0 l/m 2 min 0 min 786 W/m 9,7 km/h (2 Bft) 97,87 %
22.05.2022 12:36 22,6 C 25,0 C 25,6 C 58 % 1016,2 hPa 0,0 l/m 2 min 0 min 855 W/m 9,7 km/h (2 Bft) 96,61 %
22.05.2022 12:34 22,5 C 25,0 C 25,0 C 58 % 1016,4 hPa 0,0 l/m 2 min 0 min 904 W/m 12,9 km/h (3 Bft) 97,83 %
22.05.2022 12:32 22,4 C 25,6 C 25,0 C 59 % 1016,4 hPa 0,0 l/m 2 min 0 min 939 W/m 6,4 km/h (2 Bft) 97,87 %
22.05.2022 12:30 22,4 C 25,6 C 25,0 C 60 % 1016,4 hPa 0,0 l/m 2 min 0 min 925 W/m 12,9 km/h (3 Bft) 97,87 %
22.05.2022 12:28 22,3 C 26,1 C 23,9 C 60 % 1016,4 hPa 0,0 l/m 2 min 0 min 943 W/m 6,4 km/h (2 Bft) 97,87 %
22.05.2022 12:26 22,2 C 25,6 C 23,9 C 60 % 1016,4 hPa 0,0 l/m 2 min 0 min 929 W/m 9,7 km/h (2 Bft) 95,74 %
22.05.2022 12:24 22,1 C 25,0 C 23,3 C 61 % 1016,4 hPa 0,0 l/m 2 min 0 min 919 W/m 9,7 km/h (2 Bft) 95,74 %
22.05.2022 12:22 22,1 C 24,4 C 23,3 C 60 % 1016,4 hPa 0,0 l/m 2 min 0 min 817 W/m 3,2 km/h (1 Bft) 95,65 %
22.05.2022 12:20 22,0 C 25,0 C 22,8 C 60 % 1016,4 hPa 0,0 l/m 2 min 0 min 825 W/m 9,7 km/h (2 Bft) 93,62 %
22.05.2022 12:18 21,9 C 25,0 C 22,8 C 60 % 1016,4 hPa 0,0 l/m 2 min 0 min 834 W/m 3,2 km/h (1 Bft) 95,74 %
22.05.2022 12:16 21,9 C 25,0 C 22,8 C 59 % 1016,4 hPa 0,0 l/m 2 min 0 min 848 W/m 6,4 km/h (2 Bft) 95,74 %
22.05.2022 12:14 21,8 C 25,0 C 22,2 C 60 % 1016,4 hPa 0,0 l/m 2 min 0 min 900 W/m 6,4 km/h (2 Bft) 93,62 %
22.05.2022 12:12 21,7 C 24,4 C 21,1 C 61 % 1016,4 hPa 0,0 l/m 2 min 0 min 852 W/m 6,4 km/h (2 Bft) 95,74 %
22.05.2022 12:10 21,6 C 23,3 C 20,6 C 60 % 1016,4 hPa 0,0 l/m 2 min 0 min 866 W/m 6,4 km/h (2 Bft) 96,15 %
22.05.2022 12:08 21,6 C 23,3 C 19,4 C 60 % 1016,4 hPa 0,0 l/m 1 min 0 min 874 W/m 6,4 km/h (2 Bft) 91,67 %
22.05.2022 12:07 21,6 C 23,9 C 19,4 C 60 % 1016,4 hPa 0,0 l/m 3 min 0 min 843 W/m 6,4 km/h (2 Bft) 95,71 %
22.05.2022 12:04 21,6 C 23,9 C 18,9 C 60 % 1016,4 hPa 0,0 l/m 2 min 0 min 822 W/m 12,9 km/h (3 Bft) 93,62 %
22.05.2022 12:02 21,6 C 23,9 C 18,3 C 61 % 1016,4 hPa 0,0 l/m 2 min 0 min 738 W/m 12,9 km/h (3 Bft) 93,62 %
22.05.2022 12:00 21,4 C 25,0 C 18,3 C 62 % 1016,4 hPa 0,0 l/m 2 min 0 min 784 W/m 3,2 km/h (1 Bft) 95,74 %
22.05.2022 11:58 21,3 C 24,4 C 17,8 C 62 % 1016,4 hPa 0,0 l/m 2 min 0 min 825 W/m 3,2 km/h (1 Bft) 95,74 %
22.05.2022 11:56 21,3 C 23,9 C 17,8 C 62 % 1016,4 hPa 0,0 l/m 2 min 0 min 814 W/m 9,7 km/h (2 Bft) 95,65 %
22.05.2022 11:54 21,2 C 23,9 C 17,8 C 62 % 1016,4 hPa 0,0 l/m 2 min 0 min 801 W/m 6,4 km/h (2 Bft) 95,74 %
22.05.2022 11:52 21,2 C 24,4 C 17,8 C 62 % 1016,3 hPa 0,0 l/m 2 min 0 min 813 W/m 6,4 km/h (2 Bft) 95,74 %
22.05.2022 11:50 21,2 C 24,4 C 17,8 C 62 % 1016,3 hPa 0,0 l/m 2 min 0 min 719 W/m 6,4 km/h (2 Bft) 97,87 %
22.05.2022 11:48 21,2 C 25,0 C 18,3 C 62 % 1016,3 hPa 0,0 l/m 2 min 0 min 743 W/m 6,4 km/h (2 Bft) 97,87 %
22.05.2022 11:46 21,1 C 24,4 C 18,3 C 62 % 1016,4 hPa 0,0 l/m 2 min 0 min 825 W/m 12,9 km/h (3 Bft) 97,87 %
22.05.2022 11:44 21,1 C 25,0 C 17,8 C 62 % 1016,4 hPa 0,0 l/m 2 min 0 min 837 W/m 12,9 km/h (3 Bft) 97,83 %
22.05.2022 11:42 21,1 C 25,0 C 18,3 C 63 % 1016,4 hPa 0,0 l/m 2 min 0 min 817 W/m 6,4 km/h (2 Bft) 97,87 %
22.05.2022 11:40 20,9 C 24,4 C 17,8 C 61 % 1016,4 hPa 0,0 l/m 2 min 0 min 837 W/m 6,4 km/h (2 Bft) 100,00 %
22.05.2022 11:38 20,8 C 23,9 C 17,8 C 61 % 1016,4 hPa 0,0 l/m 2 min 0 min 836 W/m 9,7 km/h (2 Bft) 97,87 %
22.05.2022 11:36 20,7 C 23,9 C 17,8 C 62 % 1016,5 hPa 0,0 l/m 2 min 0 min 824 W/m 6,4 km/h (2 Bft) 97,87 %
22.05.2022 11:34 20,7 C 23,9 C 17,2 C 63 % 1016,4 hPa 0,0 l/m 2 min 0 min 821 W/m 9,7 km/h (2 Bft) 100,00 %
22.05.2022 11:32 20,6 C 23,9 C 17,2 C 63 % 1016,5 hPa 0,0 l/m 2 min 0 min 784 W/m 12,9 km/h (3 Bft) 100,00 %
22.05.2022 11:30 20,6 C 23,3 C 17,2 C 64 % 1016,5 hPa 0,0 l/m 2 min 0 min 770 W/m 6,4 km/h (2 Bft) 100,00 %
22.05.2022 11:28 20,5 C 23,3 C 16,7 C 64 % 1016,5 hPa 0,0 l/m 2 min 0 min 773 W/m 6,4 km/h (2 Bft) 97,87 %
22.05.2022 11:26 20,4 C 23,9 C 16,7 C 65 % 1016,5 hPa 0,0 l/m 2 min 0 min 773 W/m 6,4 km/h (2 Bft) 100,00 %
22.05.2022 11:24 20,4 C 23,3 C 16,7 C 65 % 1016,6 hPa 0,0 l/m 2 min 0 min 766 W/m 9,7 km/h (2 Bft) 100,00 %
22.05.2022 11:22 20,3 C 22,8 C 16,7 C 65 % 1016,6 hPa 0,0 l/m 2 min 0 min 765 W/m 6,4 km/h (2 Bft) 100,00 %
22.05.2022 11:20 20,2 C 22,8 C 16,1 C 65 % 1016,7 hPa 0,0 l/m 2 min 0 min 745 W/m 6,4 km/h (2 Bft) 100,00 %
22.05.2022 11:18 20,1 C 22,8 C 16,1 C 65 % 1016,7 hPa 0,0 l/m 2 min 0 min 723 W/m 6,4 km/h (2 Bft) 97,87 %
22.05.2022 11:16 20,1 C 22,8 C 16,1 C 65 % 1016,7 hPa 0,0 l/m 2 min 0 min 771 W/m 6,4 km/h (2 Bft) 100,00 %
22.05.2022 11:14 20,0 C 22,8 C 16,1 C 66 % 1016,7 hPa 0,0 l/m 2 min 0 min 804 W/m 6,4 km/h (2 Bft) 100,00 %
22.05.2022 11:12 19,9 C 23,3 C 16,1 C 66 % 1016,6 hPa 0,0 l/m 2 min 0 min 745 W/m 6,4 km/h (2 Bft) 100,00 %
22.05.2022 11:10 19,8 C 23,3 C 16,1 C 66 % 1016,7 hPa 0,0 l/m 2 min 0 min 712 W/m 6,4 km/h (2 Bft) 100,00 %
22.05.2022 11:08 19,8 C 23,3 C 16,1 C 66 % 1016,7 hPa 0,0 l/m 2 min 0 min 782 W/m 6,4 km/h (2 Bft) 97,87 %
22.05.2022 11:06 19,7 C 22,8 C 16,1 C 65 % 1016,8 hPa 0,0 l/m 2 min 0 min 788 W/m 9,7 km/h (2 Bft) 100,00 %
22.05.2022 11:04 19,6 C 22,8 C 16,1 C 65 % 1016,7 hPa 0,0 l/m 2 min 0 min 788 W/m 9,7 km/h (2 Bft) 97,87 %
22.05.2022 11:02 19,6 C 22,2 C 16,1 C 65 % 1016,8 hPa 0,0 l/m 2 min 0 min 794 W/m 6,4 km/h (2 Bft) 95,74 %
22.05.2022 11:00 19,6 C 22,2 C 16,1 C 65 % 1016,9 hPa 0,0 l/m 2 min 0 min 781 W/m 6,4 km/h (2 Bft) 95,74 %
22.05.2022 10:58 19,6 C 21,7 C 16,1 C 66 % 1016,9 hPa 0,0 l/m 2 min 0 min 749 W/m 12,9 km/h (3 Bft) 97,87 %
22.05.2022 10:56 19,6 C 21,1 C 16,7 C 66 % 1016,9 hPa 0,0 l/m 2 min 0 min 745 W/m 9,7 km/h (2 Bft) 97,83 %
22.05.2022 10:54 19,6 C 21,1 C 16,7 C 66 % 1016,9 hPa 0,0 l/m 2 min 0 min 659 W/m 6,4 km/h (2 Bft) 97,87 %
22.05.2022 10:52 19,5 C 20,6 C 16,7 C 67 % 1016,9 hPa 0,0 l/m 2 min 0 min 689 W/m 6,4 km/h (2 Bft) 97,87 %
22.05.2022 10:50 19,5 C 20,6 C 16,7 C 67 % 1017,0 hPa 0,0 l/m 2 min 0 min 627 W/m 6,4 km/h (2 Bft) 95,74 %
22.05.2022 10:48 19,4 C 20,0 C 16,7 C 67 % 1017,1 hPa 0,0 l/m 2 min 0 min 532 W/m 3,2 km/h (1 Bft) 97,87 %
22.05.2022 10:46 19,4 C 20,0 C 16,7 C 66 % 1017,1 hPa 0,0 l/m 2 min 0 min 501 W/m 6,4 km/h (2 Bft) 97,83 %
22.05.2022 10:44 19,4 C 20,0 C 16,7 C 66 % 1017,1 hPa 0,0 l/m 2 min 0 min 439 W/m 3,2 km/h (1 Bft) 97,87 %
22.05.2022 10:42 19,4 C 20,0 C 17,2 C 67 % 1017,1 hPa 0,0 l/m 2 min 0 min 462 W/m 6,4 km/h (2 Bft) 93,62 %
22.05.2022 10:40 19,4 C 20,0 C 17,2 C 66 % 1017,2 hPa 0,0 l/m 2 min 0 min 510 W/m 6,4 km/h (2 Bft) 95,74 %
22.05.2022 10:38 19,5 C 20,0 C 17,2 C 66 % 1017,2 hPa 0,0 l/m 2 min 0 min 520 W/m 6,4 km/h (2 Bft) 97,87 %
22.05.2022 10:36 19,6 C 20,0 C 17,2 C 66 % 1017,1 hPa 0,0 l/m 2 min 0 min 409 W/m 9,7 km/h (2 Bft) 97,87 %
22.05.2022 10:34 19,6 C 20,0 C 17,2 C 66 % 1017,1 hPa 0,0 l/m 2 min 0 min 356 W/m 6,4 km/h (2 Bft) 97,83 %
22.05.2022 10:32 19,6 C 20,6 C 17,8 C 65 % 1017,1 hPa 0,0 l/m 2 min 0 min 428 W/m 9,7 km/h (2 Bft) 97,87 %
22.05.2022 10:30 19,7 C 21,1 C 18,3 C 66 % 1017,1 hPa 0,0 l/m 2 min 0 min 561 W/m 6,4 km/h (2 Bft) 97,87 %
22.05.2022 10:28 19,7 C 21,1 C 18,3 C 66 % 1017,1 hPa 0,0 l/m 2 min 0 min 652 W/m 6,4 km/h (2 Bft) 100,00 %
22.05.2022 10:26 19,6 C 21,7 C 18,3 C 66 % 1017,2 hPa 0,0 l/m 2 min 0 min 655 W/m 3,2 km/h (1 Bft) 97,87 %
22.05.2022 10:24 19,6 C 21,7 C 18,3 C 66 % 1017,3 hPa 0,0 l/m 2 min 0 min 636 W/m 9,7 km/h (2 Bft) 97,87 %
22.05.2022 10:22 19,7 C 21,7 C 18,3 C 66 % 1017,3 hPa 0,0 l/m 2 min 0 min 627 W/m 9,7 km/h (2 Bft) 100,00 %
22.05.2022 10:20 19,7 C 22,2 C 18,3 C 66 % 1017,3 hPa 0,0 l/m 2 min 0 min 602 W/m 6,4 km/h (2 Bft) 97,87 %
22.05.2022 10:18 19,6 C 22,2 C 18,3 C 65 % 1017,3 hPa 0,0 l/m 2 min 0 min 625 W/m 6,4 km/h (2 Bft) 95,74 %
22.05.2022 10:16 19,6 C 22,8 C 18,3 C 66 % 1017,4 hPa 0,0 l/m 2 min 0 min 688 W/m 6,4 km/h (2 Bft) 97,87 %
22.05.2022 10:14 19,6 C 23,3 C 18,3 C 66 % 1017,4 hPa 0,0 l/m 2 min 0 min 648 W/m 6,4 km/h (2 Bft) 97,92 %
22.05.2022 10:12 19,6 C 23,3 C 18,3 C 66 % 1017,5 hPa 0,0 l/m 2 min 0 min 634 W/m 6,4 km/h (2 Bft) 97,87 %
22.05.2022 10:10 19,6 C 23,9 C 17,8 C 67 % 1017,5 hPa 0,0 l/m 2 min 0 min 626 W/m 12,9 km/h (3 Bft) 97,83 %
22.05.2022 10:08 19,6 C 23,3 C 17,8 C 67 % 1017,5 hPa 0,0 l/m 2 min 0 min 587 W/m 3,2 km/h (1 Bft) 97,87 %
22.05.2022 10:06 19,6 C 22,8 C 17,8 C 67 % 1017,5 hPa 0,0 l/m 2 min 0 min 627 W/m 6,4 km/h (2 Bft) 97,87 %
22.05.2022 10:04 19,6 C 22,8 C 18,3 C 67 % 1017,5 hPa 0,0 l/m 2 min 0 min 579 W/m 6,4 km/h (2 Bft) 97,87 %
22.05.2022 10:02 19,6 C 22,2 C 17,8 C 67 % 1017,5 hPa 0,0 l/m 2 min 0 min 548 W/m 6,4 km/h (2 Bft) 97,87 %
22.05.2022 10:00 19,7 C 22,8 C 18,3 C 68 % 1017,5 hPa 0,0 l/m 2 min 0 min 615 W/m 6,4 km/h (2 Bft) 97,87 %
22.05.2022 09:58 19,6 C 23,3 C 18,3 C 67 % 1017,6 hPa 0,0 l/m 2 min 0 min 595 W/m 6,4 km/h (2 Bft) 97,83 %
22.05.2022 09:56 19,6 C 23,3 C 18,3 C 68 % 1017,6 hPa 0,0 l/m 2 min 0 min 575 W/m 6,4 km/h (2 Bft) 97,87 %
22.05.2022 09:54 19,6 C 23,9 C 18,3 C 69 % 1017,6 hPa 0,0 l/m 2 min 0 min 622 W/m 9,7 km/h (2 Bft) 97,87 %
22.05.2022 09:52 19,6 C 24,4 C 18,3 C 69 % 1017,6 hPa 0,0 l/m 2 min 0 min 624 W/m 6,4 km/h (2 Bft) 98,00 %
22.05.2022 09:50 19,6 C 25,0 C 18,3 C 69 % 1017,6 hPa 0,0 l/m 2 min 0 min 616 W/m 3,2 km/h (1 Bft) 97,87 %
22.05.2022 09:48 19,6 C 25,0 C 18,3 C 69 % 1017,6 hPa 0,0 l/m 2 min 0 min 595 W/m 6,4 km/h (2 Bft) 100,00 %
22.05.2022 09:46 19,6 C 24,4 C 17,8 C 69 % 1017,7 hPa 0,0 l/m 2 min 0 min 583 W/m 3,2 km/h (1 Bft) 97,92 %
22.05.2022 09:44 19,5 C 24,4 C 17,8 C 70 % 1017,6 hPa 0,0 l/m 2 min 0 min 582 W/m 6,4 km/h (2 Bft) 100,00 %
22.05.2022 09:42 19,4 C 24,4 C 17,2 C 70 % 1017,6 hPa 0,0 l/m 2 min 0 min 575 W/m 6,4 km/h (2 Bft) 100,00 %
22.05.2022 09:40 19,2 C 23,9 C 16,7 C 70 % 1017,7 hPa 0,0 l/m 2 min 0 min 577 W/m 6,4 km/h (2 Bft) 100,00 %
22.05.2022 09:38 19,2 C 23,9 C 16,7 C 70 % 1017,7 hPa 0,0 l/m 2 min 0 min 566 W/m 6,4 km/h (2 Bft) 100,00 %
22.05.2022 09:36 19,1 C 24,4 C 16,7 C 72 % 1017,7 hPa 0,0 l/m 2 min 0 min 545 W/m 6,4 km/h (2 Bft) 98,28 %
22.05.2022 09:34 19,1 C 25,0 C 17,2 C 72 % 1017,7 hPa 0,0 l/m 2 min 0 min 533 W/m 6,4 km/h (2 Bft) 100,00 %
22.05.2022 09:32 19,0 C 23,9 C 16,7 C 72 % 1017,7 hPa 0,0 l/m 2 min 0 min 545 W/m 6,4 km/h (2 Bft) 97,14 %
22.05.2022 09:30 18,8 C 23,9 C 16,7 C 72 % 1017,6 hPa 0,0 l/m 2 min 0 min 557 W/m 9,7 km/h (2 Bft) 100,00 %
22.05.2022 09:28 18,8 C 24,4 C 17,2 C 72 % 1017,7 hPa 0,0 l/m 2 min 0 min 550 W/m 6,4 km/h (2 Bft) 100,00 %
22.05.2022 09:26 18,7 C 24,4 C 17,2 C 72 % 1017,7 hPa 0,0 l/m 2 min 0 min 543 W/m 3,2 km/h (1 Bft) 100,00 %
22.05.2022 09:24 18,7 C 24,4 C 17,2 C 72 % 1017,6 hPa 0,0 l/m 2 min 0 min 530 W/m 3,2 km/h (1 Bft) 100,00 %
22.05.2022 09:22 18,7 C 25,0 C 17,2 C 73 % 1017,7 hPa 0,0 l/m 2 min 0 min 497 W/m 3,2 km/h (1 Bft) 100,00 %
22.05.2022 09:20 18,6 C 25,0 C 16,7 C 74 % 1017,7 hPa 0,0 l/m 2 min 0 min 487 W/m 3,2 km/h (1 Bft) 100,00 %
22.05.2022 09:18 18,4 C 25,0 C 16,1 C 74 % 1017,7 hPa 0,0 l/m 2 min 0 min 471 W/m 6,4 km/h (2 Bft) 100,00 %
22.05.2022 09:16 18,3 C 25,6 C 16,1 C 75 % 1017,7 hPa 0,0 l/m 2 min 0 min 512 W/m 3,2 km/h (1 Bft) 100,00 %
22.05.2022 09:14 18,1 C 25,0 C 16,1 C 75 % 1017,7 hPa 0,0 l/m 2 min 0 min 510 W/m 3,2 km/h (1 Bft) 100,00 %
22.05.2022 09:12 17,9 C 25,0 C 16,1 C 75 % 1017,7 hPa 0,0 l/m 2 min 0 min 501 W/m 6,4 km/h (2 Bft) 100,00 %
22.05.2022 09:10 17,8 C 24,4 C 15,6 C 76 % 1017,7 hPa 0,0 l/m 2 min 0 min 494 W/m 6,4 km/h (2 Bft) 100,00 %
22.05.2022 09:08 17,6 C 23,9 C 15,6 C 79 % 1017,7 hPa 0,0 l/m 2 min 0 min 487 W/m 6,4 km/h (2 Bft) 100,00 %
22.05.2022 09:06 17,3 C 23,3 C 15,6 C 80 % 1017,7 hPa 0,0 l/m 2 min 0 min 476 W/m 6,4 km/h (2 Bft) 100,00 %
22.05.2022 09:04 17,0 C 22,8 C 15,6 C 80 % 1017,7 hPa 0,0 l/m 2 min 0 min 471 W/m 6,4 km/h (2 Bft) 100,00 %
22.05.2022 09:02 16,8 C 22,2 C 15,6 C 80 % 1017,7 hPa 0,0 l/m 2 min 0 min 466 W/m 6,4 km/h (2 Bft) 95,74 %
22.05.2022 09:00 16,7 C 22,2 C 15,0 C 80 % 1017,8 hPa 0,0 l/m 2 min 0 min 456 W/m 3,2 km/h (1 Bft) 100,00 %
22.05.2022 08:58 16,6 C 21,7 C 15,0 C 81 % 1017,8 hPa 0,0 l/m 2 min 0 min 450 W/m 3,2 km/h (1 Bft) 97,83 %
22.05.2022 08:56 16,4 C 21,1 C 15,0 C 81 % 1017,7 hPa 0,0 l/m 2 min 0 min 443 W/m 6,4 km/h (2 Bft) 97,87 %
22.05.2022 08:54 16,3 C 21,1 C 14,4 C 81 % 1017,7 hPa 0,0 l/m 2 min 0 min 432 W/m 3,2 km/h (1 Bft) 100,00 %
22.05.2022 08:52 16,2 C 21,1 C 14,4 C 81 % 1017,7 hPa 0,0 l/m 2 min 0 min 431 W/m 3,2 km/h (1 Bft) 100,00 %
22.05.2022 08:50 16,2 C 20,6 C 13,9 C 82 % 1017,7 hPa 0,0 l/m 2 min 0 min 421 W/m 6,4 km/h (2 Bft) 100,00 %
22.05.2022 08:48 16,1 C 20,0 C 13,9 C 82 % 1017,7 hPa 0,0 l/m 2 min 0 min 419 W/m 3,2 km/h (1 Bft) 100,00 %
22.05.2022 08:46 15,9 C 20,0 C 13,9 C 83 % 1017,7 hPa 0,0 l/m 2 min 0 min 424 W/m 3,2 km/h (1 Bft) 95,65 %
22.05.2022 08:44 15,8 C 20,0 C 13,3 C 84 % 1017,7 hPa 0,0 l/m 2 min 0 min 423 W/m 0,0 km/h (0 Bft) 100,00 %
22.05.2022 08:42 15,6 C 19,4 C 13,3 C 84 % 1017,7 hPa 0,0 l/m 2 min 0 min 420 W/m 0,0 km/h (0 Bft) 100,00 %
22.05.2022 08:40 15,4 C 19,4 C 12,8 C 85 % 1017,8 hPa 0,0 l/m 2 min 0 min 413 W/m 3,2 km/h (1 Bft) 97,87 %
22.05.2022 08:38 15,3 C 18,9 C 12,8 C 85 % 1017,7 hPa 0,0 l/m 2 min 0 min 410 W/m 12,9 km/h (3 Bft) 97,87 %
22.05.2022 08:36 15,2 C 19,4 C 12,8 C 86 % 1017,8 hPa 0,0 l/m 2 min 0 min 409 W/m 3,2 km/h (1 Bft) 97,87 %
22.05.2022 08:34 15,0 C 18,9 C 12,2 C 87 % 1017,8 hPa 0,0 l/m 2 min 0 min 407 W/m 6,4 km/h (2 Bft) 97,83 %
22.05.2022 08:32 14,8 C 18,9 C 12,2 C 88 % 1017,8 hPa 0,0 l/m 2 min 0 min 407 W/m 6,4 km/h (2 Bft) 97,87 %
22.05.2022 08:30 14,7 C 18,3 C 11,7 C 88 % 1017,8 hPa 0,0 l/m 2 min 0 min 392 W/m 3,2 km/h (1 Bft) 97,87 %
22.05.2022 08:28 14,5 C 18,3 C 11,7 C 89 % 1017,8 hPa 0,0 l/m 2 min 0 min 382 W/m 6,4 km/h (2 Bft) 97,87 %
22.05.2022 08:26 14,3 C 17,8 C 11,1 C 89 % 1017,8 hPa 0,0 l/m 2 min 0 min 372 W/m 3,2 km/h (1 Bft) 97,87 %
22.05.2022 08:24 14,3 C 17,2 C 11,1 C 90 % 1017,7 hPa 0,0 l/m 2 min 0 min 361 W/m 3,2 km/h (1 Bft) 95,74 %
22.05.2022 08:22 14,1 C 16,7 C 11,1 C 90 % 1017,8 hPa 0,0 l/m 2 min 0 min 360 W/m 6,4 km/h (2 Bft) 95,65 %
22.05.2022 08:20 14,0 C 15,6 C 10,6 C 90 % 1017,8 hPa 0,0 l/m 2 min 0 min 332 W/m 3,2 km/h (1 Bft) 97,87 %
22.05.2022 08:18 13,8 C 15,0 C 10,6 C 90 % 1017,7 hPa 0,0 l/m 2 min 0 min 306 W/m 6,4 km/h (2 Bft) 97,87 %
22.05.2022 08:16 13,8 C 14,4 C 10,6 C 91 % 1017,7 hPa 0,0 l/m 2 min 0 min 298 W/m 6,4 km/h (2 Bft) 97,87 %
22.05.2022 08:14 13,7 C 13,9 C 10,6 C 91 % 1017,7 hPa 0,0 l/m 2 min 0 min 191 W/m 3,2 km/h (1 Bft) 95,74 %
22.05.2022 08:12 13,7 C 13,9 C 10,6 C 91 % 1017,7 hPa 0,0 l/m 0 min 0 min 107 W/m 3,2 km/h (1 Bft) 95,74 %
22.05.2022 08:10 13,6 C 13,9 C 10,6 C 91 % 1017,7 hPa 0,0 l/m 0 min 0 min 104 W/m 3,2 km/h (1 Bft) 95,65 %
22.05.2022 08:08 13,6 C 13,9 C 10,6 C 91 % 1017,8 hPa 0,0 l/m 0 min 0 min 96 W/m 6,4 km/h (2 Bft) 95,74 %
22.05.2022 08:06 13,6 C 13,9 C 10,6 C 92 % 1017,8 hPa 0,0 l/m 0 min 0 min 90 W/m 6,4 km/h (2 Bft) 93,62 %
22.05.2022 08:04 13,5 C 13,9 C 10,6 C 92 % 1017,8 hPa 0,0 l/m 0 min 0 min 97 W/m 6,4 km/h (2 Bft) 95,74 %
22.05.2022 08:02 13,4 C 13,9 C 10,6 C 92 % 1017,8 hPa 0,0 l/m 0 min 0 min 98 W/m 3,2 km/h (1 Bft) 91,49 %
22.05.2022 08:00 13,3 C 13,9 C 10,6 C 92 % 1017,8 hPa 0,0 l/m 0 min 0 min 127 W/m 0,0 km/h (0 Bft) 95,74 %
22.05.2022 07:58 13,3 C 13,9 C 10,6 C 93 % 1017,8 hPa 0,0 l/m 2 min 0 min 261 W/m 6,4 km/h (2 Bft) 97,83 %
22.05.2022 07:56 13,2 C 13,9 C 10,6 C 93 % 1017,7 hPa 0,0 l/m 2 min 0 min 285 W/m 3,2 km/h (1 Bft) 97,87 %
22.05.2022 07:54 13,2 C 13,9 C 10,6 C 93 % 1017,8 hPa 0,0 l/m 2 min 0 min 285 W/m 6,4 km/h (2 Bft) 97,87 %
22.05.2022 07:52 13,1 C 13,9 C 10,0 C 93 % 1017,8 hPa 0,0 l/m 2 min 0 min 268 W/m 3,2 km/h (1 Bft) 97,87 %
22.05.2022 07:50 13,0 C 13,9 C 10,0 C 93 % 1017,7 hPa 0,0 l/m 2 min 0 min 192 W/m 3,2 km/h (1 Bft) 93,62 %
22.05.2022 07:48 12,9 C 13,9 C 10,0 C 93 % 1017,7 hPa 0,0 l/m 0 min 0 min 125 W/m 6,4 km/h (2 Bft) 97,87 %
22.05.2022 07:46 12,8 C 13,9 C 10,0 C 93 % 1017,8 hPa 0,0 l/m 0 min 0 min 120 W/m 3,2 km/h (1 Bft) 95,65 %
22.05.2022 07:44 12,8 C 13,3 C 10,0 C 93 % 1017,8 hPa 0,0 l/m 0 min 0 min 115 W/m 3,2 km/h (1 Bft) 95,74 %
22.05.2022 07:42 12,7 C 13,3 C 10,0 C 93 % 1017,8 hPa 0,0 l/m 0 min 0 min 112 W/m 12,9 km/h (3 Bft) 95,74 %
22.05.2022 07:40 12,7 C 13,3 C 10,0 C 94 % 1017,7 hPa 0,0 l/m 0 min 0 min 110 W/m 6,4 km/h (2 Bft) 95,74 %
22.05.2022 07:38 12,6 C 13,3 C 10,0 C 94 % 1017,8 hPa 0,0 l/m 0 min 0 min 109 W/m 0,0 km/h (0 Bft) 97,87 %
22.05.2022 07:36 12,6 C 13,3 C 10,0 C 94 % 1017,8 hPa 0,0 l/m 0 min 0 min 111 W/m 0,0 km/h (0 Bft) 97,87 %
22.05.2022 07:34 12,5 C 13,3 C 10,0 C 94 % 1017,8 hPa 0,0 l/m 0 min 0 min 115 W/m 0,0 km/h (0 Bft) 95,65 %
22.05.2022 07:32 12,4 C 13,3 C 10,0 C 94 % 1017,9 hPa 0,0 l/m 0 min 0 min 117 W/m 0,0 km/h (0 Bft) 97,87 %
22.05.2022 07:30 12,3 C 13,3 C 9,4 C 94 % 1017,8 hPa 0,0 l/m 0 min 0 min 116 W/m 0,0 km/h (0 Bft) 97,87 %
22.05.2022 07:28 12,3 C 13,3 C 9,4 C 94 % 1017,7 hPa 0,0 l/m 0 min 0 min 114 W/m 0,0 km/h (0 Bft) 97,87 %
22.05.2022 07:26 12,2 C 12,8 C 9,4 C 94 % 1017,7 hPa 0,0 l/m 0 min 0 min 112 W/m 0,0 km/h (0 Bft) 97,87 %
22.05.2022 07:24 12,2 C 12,8 C 9,4 C 94 % 1017,7 hPa 0,0 l/m 0 min 0 min 109 W/m 0,0 km/h (0 Bft) 97,87 %
22.05.2022 07:22 12,1 C 12,8 C 9,4 C 94 % 1017,6 hPa 0,0 l/m 0 min 0 min 107 W/m 0,0 km/h (0 Bft) 97,83 %
22.05.2022 07:20 12,1 C 12,8 C 9,4 C 94 % 1017,7 hPa 0,0 l/m 0 min 0 min 110 W/m 0,0 km/h (0 Bft) 97,87 %
22.05.2022 07:18 12,0 C 12,8 C 8,9 C 94 % 1017,8 hPa 0,0 l/m 0 min 0 min 113 W/m 0,0 km/h (0 Bft) 95,74 %
22.05.2022 07:16 11,9 C 12,2 C 8,9 C 94 % 1017,8 hPa 0,0 l/m 0 min 0 min 112 W/m 0,0 km/h (0 Bft) 97,87 %
22.05.2022 07:14 11,9 C 12,2 C 8,9 C 94 % 1017,8 hPa 0,0 l/m 0 min 0 min 104 W/m 0,0 km/h (0 Bft) 97,87 %
22.05.2022 07:12 11,8 C 12,2 C 8,9 C 94 % 1017,8 hPa 0,0 l/m 0 min 0 min 93 W/m 0,0 km/h (0 Bft) 97,83 %
22.05.2022 07:10 11,7 C 12,2 C 8,9 C 94 % 1017,9 hPa 0,0 l/m 0 min 0 min 84 W/m 0,0 km/h (0 Bft) 97,87 %
22.05.2022 07:08 11,7 C 12,2 C 8,3 C 93 % 1017,9 hPa 0,0 l/m 0 min 0 min 72 W/m 0,0 km/h (0 Bft) 69,57 %
22.05.2022 07:06 11,6 C 12,2 C 8,3 C 93 % 1017,9 hPa 0,0 l/m 0 min 0 min 68 W/m 0,0 km/h (0 Bft) 82,98 %
22.05.2022 07:04 11,6 C 12,2 C 8,3 C 93 % 1017,9 hPa 0,0 l/m 0 min 0 min 64 W/m 0,0 km/h (0 Bft) 95,74 %
22.05.2022 07:02 11,6 C 11,7 C 8,3 C 93 % 1018,0 hPa 0,0 l/m 0 min 0 min 62 W/m 0,0 km/h (0 Bft) 100,00 %
22.05.2022 07:00 11,6 C 11,7 C 8,3 C 93 % 1018,0 hPa 0,0 l/m 0 min 0 min 57 W/m 0,0 km/h (0 Bft) 100,00 %
22.05.2022 06:58 11,6 C 11,7 C 8,3 C 93 % 1017,9 hPa 0,0 l/m 0 min 0 min 54 W/m 0,0 km/h (0 Bft) 97,87 %
22.05.2022 06:56 11,6 C 11,7 C 8,3 C 93 % 1017,9 hPa 0,0 l/m 0 min 0 min 48 W/m 0,0 km/h (0 Bft) 95,74 %
22.05.2022 06:54 11,5 C 11,7 C 8,3 C 93 % 1017,9 hPa 0,0 l/m 0 min 0 min 40 W/m 0,0 km/h (0 Bft) 97,87 %
22.05.2022 06:52 11,5 C 11,7 C 8,3 C 93 % 1017,9 hPa 0,0 l/m 0 min 0 min 46 W/m 0,0 km/h (0 Bft) 97,87 %
22.05.2022 06:50 11,4 C 11,7 C 7,8 C 93 % 1017,9 hPa 0,0 l/m 0 min 0 min 46 W/m 0,0 km/h (0 Bft) 100,00 %
22.05.2022 06:48 11,4 C 11,7 C 7,8 C 93 % 1017,9 hPa 0,0 l/m 0 min 0 min 46 W/m 0,0 km/h (0 Bft) 97,83 %
22.05.2022 06:46 11,4 C 11,1 C 7,8 C 93 % 1017,9 hPa 0,0 l/m 0 min 0 min 46 W/m 0,0 km/h (0 Bft) 100,00 %
22.05.2022 06:44 11,3 C 11,1 C 7,8 C 92 % 1017,8 hPa 0,0 l/m 0 min 0 min 47 W/m 0,0 km/h (0 Bft) 100,00 %
22.05.2022 06:42 11,3 C 11,1 C 7,8 C 93 % 1017,8 hPa 0,0 l/m 0 min 0 min 45 W/m 0,0 km/h (0 Bft) 97,87 %
22.05.2022 06:40 11,3 C 11,1 C 7,8 C 92 % 1017,9 hPa 0,0 l/m 0 min 0 min 39 W/m 0,0 km/h (0 Bft) 100,00 %
22.05.2022 06:38 11,3 C 11,1 C 7,8 C 92 % 1017,9 hPa 0,0 l/m 0 min 0 min 40 W/m 0,0 km/h (0 Bft) 100,00 %
22.05.2022 06:36 11,3 C 10,6 C 7,8 C 92 % 1017,8 hPa 0,0 l/m 0 min 0 min 33 W/m 0,0 km/h (0 Bft) 100,00 %
22.05.2022 06:34 11,3 C 10,6 C 7,8 C 92 % 1017,8 hPa 0,0 l/m 0 min 0 min 27 W/m 0,0 km/h (0 Bft) 100,00 %
22.05.2022 06:32 11,3 C 10,6 C 7,8 C 92 % 1017,8 hPa 0,0 l/m 0 min 0 min 23 W/m 0,0 km/h (0 Bft) 100,00 %
22.05.2022 06:30 11,3 C 10,6 C 7,8 C 92 % 1017,8 hPa 0,0 l/m 0 min 0 min 20 W/m 0,0 km/h (0 Bft) 100,00 %
22.05.2022 06:28 11,3 C 10,6 C 7,8 C 92 % 1017,8 hPa 0,0 l/m 0 min 0 min 17 W/m 0,0 km/h (0 Bft) 100,00 %
22.05.2022 06:26 11,3 C 10,6 C 7,2 C 92 % 1017,8 hPa 0,0 l/m 0 min 0 min 16 W/m 0,0 km/h (0 Bft) 100,00 %
22.05.2022 06:24 11,3 C 10,6 C 7,8 C 92 % 1017,8 hPa 0,0 l/m 0 min 0 min 16 W/m 0,0 km/h (0 Bft) 97,83 %
22.05.2022 06:22 11,3 C 10,6 C 7,8 C 92 % 1017,8 hPa 0,0 l/m 0 min 0 min 16 W/m 0,0 km/h (0 Bft) 97,87 %
22.05.2022 06:20 11,3 C 10,6 C 7,2 C 92 % 1017,8 hPa 0,0 l/m 0 min 0 min 18 W/m 0,0 km/h (0 Bft) 93,62 %
22.05.2022 06:18 11,3 C 10,6 C 7,2 C 92 % 1017,8 hPa 0,0 l/m 0 min 0 min 18 W/m 0,0 km/h (0 Bft) 97,87 %
22.05.2022 06:16 11,3 C 10,6 C 7,2 C 92 % 1017,8 hPa 0,0 l/m 0 min 0 min 19 W/m 0,0 km/h (0 Bft) 95,74 %
22.05.2022 06:14 11,3 C 10,6 C 7,2 C 92 % 1017,8 hPa 0,0 l/m 0 min 0 min 18 W/m 0,0 km/h (0 Bft) 97,87 %
22.05.2022 06:12 11,3 C 10,6 C 7,8 C 92 % 1017,9 hPa 0,0 l/m 0 min 0 min 16 W/m 0,0 km/h (0 Bft) 97,83 %
22.05.2022 06:10 11,3 C 10,6 C 7,8 C 92 % 1017,8 hPa 0,0 l/m 0 min 0 min 15 W/m 0,0 km/h (0 Bft) 97,87 %
22.05.2022 06:08 11,3 C 10,6 C 7,8 C 92 % 1017,9 hPa 0,0 l/m 0 min 0 min 14 W/m 0,0 km/h (0 Bft) 97,87 %
22.05.2022 06:04 11,3 C 10,6 C 7,8 C 92 % 1017,9 hPa 0,0 l/m 0 min 0 min 14 W/m 0,0 km/h (0 Bft) 97,87 %
22.05.2022 06:02 11,3 C 10,6 C 7,8 C 92 % 1017,9 hPa 0,0 l/m 0 min 0 min 13 W/m 0,0 km/h (0 Bft) 97,87 %
22.05.2022 06:00 11,3 C 10,6 C 7,2 C 91 % 1017,9 hPa 0,0 l/m 0 min 0 min 12 W/m 0,0 km/h (0 Bft) 95,65 %
22.05.2022 05:58 11,3 C 10,6 C 7,2 C 91 % 1017,9 hPa 0,0 l/m 0 min 0 min 12 W/m 0,0 km/h (0 Bft) 97,87 %
22.05.2022 05:56 11,3 C 10,6 C 7,2 C 92 % 1017,9 hPa 0,0 l/m 0 min 0 min 12 W/m 0,0 km/h (0 Bft) 95,74 %
22.05.2022 05:54 11,4 C 10,6 C 7,2 C 92 % 1017,9 hPa 0,0 l/m 0 min 0 min 11 W/m 0,0 km/h (0 Bft) 100,00 %
22.05.2022 05:52 11,4 C 10,6 C 7,2 C 92 % 1017,9 hPa 0,0 l/m 0 min 0 min 9 W/m 0,0 km/h (0 Bft) 97,87 %
22.05.2022 05:50 11,4 C 10,6 C 7,2 C 92 % 1017,9 hPa 0,0 l/m 0 min 0 min 8 W/m 0,0 km/h (0 Bft) 97,87 %
22.05.2022 05:48 11,4 C 10,6 C 7,2 C 91 % 1018,0 hPa 0,0 l/m 0 min 0 min 7 W/m 0,0 km/h (0 Bft) 97,83 %
22.05.2022 05:46 11,4 C 10,6 C 7,2 C 91 % 1018,0 hPa 0,0 l/m 0 min 0 min 7 W/m 0,0 km/h (0 Bft) 100,00 %
22.05.2022 05:44 11,4 C 10,6 C 7,2 C 91 % 1018,0 hPa 0,0 l/m 0 min 0 min 6 W/m 0,0 km/h (0 Bft) 100,00 %
22.05.2022 05:42 11,4 C 10,6 C 7,2 C 91 % 1018,0 hPa 0,0 l/m 0 min 0 min 5 W/m 0,0 km/h (0 Bft) 100,00 %
22.05.2022 05:40 11,4 C 10,6 C 7,2 C 91 % 1018,0 hPa 0,0 l/m 0 min 0 min 5 W/m 0,0 km/h (0 Bft) 100,00 %
22.05.2022 05:38 11,4 C 10,6 C 7,2 C 91 % 1018,0 hPa 0,0 l/m 0 min 0 min 1 W/m 0,0 km/h (0 Bft) 100,00 %
22.05.2022 05:36 11,4 C 10,6 C 7,2 C 91 % 1018,0 hPa 0,0 l/m 0 min 0 min 0 W/m 0,0 km/h (0 Bft) 100,00 %
22.05.2022 05:34 11,5 C 10,6 C 7,2 C 91 % 1018,0 hPa 0,0 l/m 0 min 0 min 0 W/m 0,0 km/h (0 Bft) 97,87 %
22.05.2022 05:32 11,5 C 10,6 C 7,2 C 91 % 1018,0 hPa 0,0 l/m 0 min 0 min 0 W/m 0,0 km/h (0 Bft) 95,74 %
22.05.2022 05:30 11,6 C 10,6 C 7,2 C 91 % 1018,1 hPa 0,0 l/m 0 min 0 min 0 W/m 0,0 km/h (0 Bft) 95,74 %
22.05.2022 05:28 11,6 C 10,6 C 7,8 C 91 % 1018,1 hPa 0,0 l/m 0 min 0 min 0 W/m 0,0 km/h (0 Bft) 97,87 %
22.05.2022 05:26 11,6 C 10,6 C 7,8 C 91 % 1018,2 hPa 0,0 l/m 0 min 0 min 0 W/m 0,0 km/h (0 Bft) 97,87 %
22.05.2022 05:24 11,6 C 10,6 C 7,8 C 91 % 1018,2 hPa 0,0 l/m 0 min 0 min 0 W/m 0,0 km/h (0 Bft) 97,83 %
22.05.2022 05:22 11,6 C 10,6 C 7,8 C 91 % 1018,2 hPa 0,0 l/m 0 min 0 min 0 W/m 0,0 km/h (0 Bft) 95,74 %
22.05.2022 05:20 11,6 C 10,6 C 7,8 C 91 % 1018,2 hPa 0,0 l/m 0 min 0 min 0 W/m 3,2 km/h (1 Bft) 95,74 %
22.05.2022 05:18 11,6 C 10,6 C 7,8 C 91 % 1018,2 hPa 0,0 l/m 0 min 0 min 0 W/m 3,2 km/h (1 Bft) 95,74 %
22.05.2022 05:16 11,6 C 10,6 C 7,8 C 91 % 1018,2 hPa 0,0 l/m 0 min 0 min 0 W/m 3,2 km/h (1 Bft) 95,74 %
22.05.2022 05:14 11,7 C 10,6 C 7,8 C 91 % 1018,2 hPa 0,0 l/m 0 min 0 min 0 W/m 0,0 km/h (0 Bft) 95,74 %
22.05.2022 05:12 11,7 C 10,6 C 7,8 C 91 % 1018,2 hPa 0,0 l/m 0 min 0 min 0 W/m 0,0 km/h (0 Bft) 93,48 %
22.05.2022 05:10 11,7 C 11,1 C 7,8 C 91 % 1018,2 hPa 0,0 l/m 0 min 0 min 0 W/m 0,0 km/h (0 Bft) 95,74 %
22.05.2022 05:08 11,7 C 11,1 C 7,8 C 91 % 1018,2 hPa 0,0 l/m 0 min 0 min 0 W/m 0,0 km/h (0 Bft) 95,74 %
22.05.2022 05:06 11,7 C 11,1 C 7,8 C 91 % 1018,3 hPa 0,0 l/m 0 min 0 min 0 W/m 0,0 km/h (0 Bft) 95,74 %
22.05.2022 05:04 11,7 C 11,1 C 7,8 C 91 % 1018,4 hPa 0,0 l/m 0 min 0 min 0 W/m 0,0 km/h (0 Bft) 93,62 %
22.05.2022 05:02 11,7 C 11,1 C 7,8 C 91 % 1018,3 hPa 0,0 l/m 0 min 0 min 0 W/m 0,0 km/h (0 Bft) 95,74 %
22.05.2022 05:00 11,7 C 11,1 C 7,8 C 91 % 1018,4 hPa 0,0 l/m 0 min 0 min 0 W/m 0,0 km/h (0 Bft) 95,65 %
_ Min-Zeit 05:56 05:12 05:30 18:20 03:42 - - - - 05:00 07:08
Minimum _ 11,3 C 10,6 C 7,2 C 46 % 1007,2 hPa - - - - 0,0 km/h (0 Bft) 69,57 %
_ Max-Zeit 18:16 16:52 13:44 07:10 05:00 05:00 18:08 05:00 13:16 14:26 05:36
Maximum _ 25,4 C 31,7 C 26,7 C 94 % 1018,4 hPa 0,0 l/m 4 min 0 min 1000 W/m 19,3 km/h
N-NO (3 Bft)
100,00 %
Durchschnitt _ 18,7 C 19,8 C 15,1 C 72 % 1013,7 hPa #0,0 l/m #0 min. #0 min. 0 W/m 5,1 km/h (1 Bft) 97,52 %
© 2022 W. Hausmann